<?xml version="1.0" encoding="UTF-8" standalone="no" ?>
<gpx xmlns="http://www.topografix.com/GPX/1/1" creator="MapSource 6.16.3" version="1.1" xmlns:xsi="http://www.w3.org/2001/XMLSchema-instance" xsi:schemaLocation="http://www.topografix.com/GPX/1/1 http://www.topografix.com/GPX/1/1/gpx.xsd">

  <metadata>
    <link href="http://www.garmin.com">
      <text>Garmin International</text>
    </link>
    <time>2016-08-31T06:18:15Z</time>
    <bounds maxlat="45.644824504852295" maxlon="8.249595165252686" minlat="45.593841075897217" minlon="8.20854663848877"/>
  </metadata>

  <wpt lat="45.594799965620041" lon="8.247749973088503">
    <name>ARRIVO</name>
    <sym>Diamond, Green</sym>
    <extensions>
      <gpxx:WaypointExtension xmlns:gpxx="http://www.garmin.com/xmlschemas/GpxExtensions/v3">
        <gpxx:DisplayMode>SymbolAndName</gpxx:DisplayMode>
      </gpxx:WaypointExtension>
    </extensions>
  </wpt>

  <wpt lat="45.594533337280154" lon="8.247849969193339">
    <name>PARTENZA</name>
    <sym>Trail Head</sym>
    <extensions>
      <gpxx:WaypointExtension xmlns:gpxx="http://www.garmin.com/xmlschemas/GpxExtensions/v3">
        <gpxx:DisplayMode>SymbolAndName</gpxx:DisplayMode>
      </gpxx:WaypointExtension>
    </extensions>
  </wpt>

  <trk>
    <name>ACTIVE LOG</name>
    <trkseg>
      <trkpt lat="45.594527721405029" lon="8.247857093811035">
        <ele>278.919677734375</ele>
        <time>2005-12-11T09:35:08Z</time>
      </trkpt>
      <trkpt lat="45.594549179077148" lon="8.247878551483154">
        <ele>278.43896484375</ele>
        <time>2005-12-11T09:38:13Z</time>
      </trkpt>
      <trkpt lat="45.594570636749268" lon="8.247878551483154">
        <ele>279.4002685546875</ele>
        <time>2005-12-11T09:40:50Z</time>
      </trkpt>
      <trkpt lat="45.594677925109863" lon="8.247921466827393">
        <ele>278.919677734375</ele>
        <time>2005-12-11T09:40:58Z</time>
      </trkpt>
      <trkpt lat="45.594806671142578" lon="8.247878551483154">
        <ele>278.43896484375</ele>
        <time>2005-12-11T09:41:06Z</time>
      </trkpt>
      <trkpt lat="45.594892501831055" lon="8.247921466827393">
        <ele>278.43896484375</ele>
        <time>2005-12-11T09:41:12Z</time>
      </trkpt>
      <trkpt lat="45.594892501831055" lon="8.248007297515869">
        <ele>278.919677734375</ele>
        <time>2005-12-11T09:41:16Z</time>
      </trkpt>
      <trkpt lat="45.594828128814697" lon="8.248414993286133">
        <ele>279.4002685546875</ele>
        <time>2005-12-11T09:41:30Z</time>
      </trkpt>
      <trkpt lat="45.59476375579834" lon="8.248779773712158">
        <ele>280.3616943359375</ele>
        <time>2005-12-11T09:41:42Z</time>
      </trkpt>
      <trkpt lat="45.594720840454102" lon="8.249101638793945">
        <ele>281.322998046875</ele>
        <time>2005-12-11T09:41:52Z</time>
      </trkpt>
      <trkpt lat="45.594699382781982" lon="8.249423503875732">
        <ele>281.322998046875</ele>
        <time>2005-12-11T09:42:03Z</time>
      </trkpt>
      <trkpt lat="45.594720840454102" lon="8.249595165252686">
        <ele>281.322998046875</ele>
        <time>2005-12-11T09:42:09Z</time>
      </trkpt>
      <trkpt lat="45.594871044158936" lon="8.249573707580566">
        <ele>281.322998046875</ele>
        <time>2005-12-11T09:42:16Z</time>
      </trkpt>
      <trkpt lat="45.595171451568604" lon="8.249380588531494">
        <ele>281.322998046875</ele>
        <time>2005-12-11T09:42:30Z</time>
      </trkpt>
      <trkpt lat="45.595428943634033" lon="8.249187469482422">
        <ele>281.8035888671875</ele>
        <time>2005-12-11T09:42:42Z</time>
      </trkpt>
      <trkpt lat="45.595815181732178" lon="8.248951435089111">
        <ele>282.7650146484375</ele>
        <time>2005-12-11T09:42:57Z</time>
      </trkpt>
      <trkpt lat="45.596222877502441" lon="8.248801231384277">
        <ele>283.7261962890625</ele>
        <time>2005-12-11T09:43:11Z</time>
      </trkpt>
      <trkpt lat="45.596544742584229" lon="8.248865604400635">
        <ele>284.2069091796875</ele>
        <time>2005-12-11T09:43:22Z</time>
      </trkpt>
      <trkpt lat="45.596909523010254" lon="8.248929977416992">
        <ele>285.168212890625</ele>
        <time>2005-12-11T09:43:34Z</time>
      </trkpt>
      <trkpt lat="45.59699535369873" lon="8.248779773712158">
        <ele>285.6488037109375</ele>
        <time>2005-12-11T09:43:39Z</time>
      </trkpt>
      <trkpt lat="45.597038269042969" lon="8.248436450958252">
        <ele>286.1295166015625</ele>
        <time>2005-12-11T09:43:46Z</time>
      </trkpt>
      <trkpt lat="45.597145557403564" lon="8.248136043548584">
        <ele>286.1295166015625</ele>
        <time>2005-12-11T09:43:53Z</time>
      </trkpt>
      <trkpt lat="45.597360134124756" lon="8.247964382171631">
        <ele>287.0908203125</ele>
        <time>2005-12-11T09:44:00Z</time>
      </trkpt>
      <trkpt lat="45.597832202911377" lon="8.247835636138916">
        <ele>288.532958984375</ele>
        <time>2005-12-11T09:44:14Z</time>
      </trkpt>
      <trkpt lat="45.598175525665283" lon="8.247621059417725">
        <ele>289.494140625</ele>
        <time>2005-12-11T09:44:25Z</time>
      </trkpt>
      <trkpt lat="45.598433017730713" lon="8.247213363647461">
        <ele>289.974853515625</ele>
        <time>2005-12-11T09:44:36Z</time>
      </trkpt>
      <trkpt lat="45.598797798156738" lon="8.246591091156006">
        <ele>290.45556640625</ele>
        <time>2005-12-11T09:44:52Z</time>
      </trkpt>
      <trkpt lat="45.599055290222168" lon="8.246376514434815">
        <ele>290.9361572265625</ele>
        <time>2005-12-11T09:45:01Z</time>
      </trkpt>
      <trkpt lat="45.599162578582764" lon="8.246140480041504">
        <ele>290.9361572265625</ele>
        <time>2005-12-11T09:45:06Z</time>
      </trkpt>
      <trkpt lat="45.599377155303955" lon="8.245882987976074">
        <ele>290.45556640625</ele>
        <time>2005-12-11T09:45:13Z</time>
      </trkpt>
      <trkpt lat="45.599784851074219" lon="8.245582580566406">
        <ele>290.45556640625</ele>
        <time>2005-12-11T09:45:25Z</time>
      </trkpt>
      <trkpt lat="45.600214004516602" lon="8.245282173156738">
        <ele>290.45556640625</ele>
        <time>2005-12-11T09:45:38Z</time>
      </trkpt>
      <trkpt lat="45.600707530975342" lon="8.244960308074951">
        <ele>290.45556640625</ele>
        <time>2005-12-11T09:45:52Z</time>
      </trkpt>
      <trkpt lat="45.601136684417725" lon="8.244595527648926">
        <ele>290.9361572265625</ele>
        <time>2005-12-11T09:46:05Z</time>
      </trkpt>
      <trkpt lat="45.601608753204346" lon="8.244187831878662">
        <ele>290.45556640625</ele>
        <time>2005-12-11T09:46:19Z</time>
      </trkpt>
      <trkpt lat="45.602123737335205" lon="8.243844509124756">
        <ele>290.45556640625</ele>
        <time>2005-12-11T09:46:33Z</time>
      </trkpt>
      <trkpt lat="45.602531433105469" lon="8.243544101715088">
        <ele>289.974853515625</ele>
        <time>2005-12-11T09:46:45Z</time>
      </trkpt>
      <trkpt lat="45.603024959564209" lon="8.24324369430542">
        <ele>289.974853515625</ele>
        <time>2005-12-11T09:46:59Z</time>
      </trkpt>
      <trkpt lat="45.603475570678711" lon="8.24298620223999">
        <ele>291.416748046875</ele>
        <time>2005-12-11T09:47:12Z</time>
      </trkpt>
      <trkpt lat="45.603883266448975" lon="8.242814540863037">
        <ele>292.8587646484375</ele>
        <time>2005-12-11T09:47:23Z</time>
      </trkpt>
      <trkpt lat="45.604119300842285" lon="8.242599964141846">
        <ele>292.378173828125</ele>
        <time>2005-12-11T09:47:30Z</time>
      </trkpt>
      <trkpt lat="45.604462623596191" lon="8.242042064666748">
        <ele>293.33935546875</ele>
        <time>2005-12-11T09:47:43Z</time>
      </trkpt>
      <trkpt lat="45.604784488677979" lon="8.241569995880127">
        <ele>294.7813720703125</ele>
        <time>2005-12-11T09:47:55Z</time>
      </trkpt>
      <trkpt lat="45.605063438415527" lon="8.241441249847412">
        <ele>296.7041015625</ele>
        <time>2005-12-11T09:48:03Z</time>
      </trkpt>
      <trkpt lat="45.605535507202148" lon="8.241462707519531">
        <ele>299.5880126953125</ele>
        <time>2005-12-11T09:48:16Z</time>
      </trkpt>
      <trkpt lat="45.605857372283936" lon="8.241698741912842">
        <ele>299.1072998046875</ele>
        <time>2005-12-11T09:48:26Z</time>
      </trkpt>
      <trkpt lat="45.606157779693604" lon="8.241913318634033">
        <ele>299.5880126953125</ele>
        <time>2005-12-11T09:48:36Z</time>
      </trkpt>
      <trkpt lat="45.606415271759033" lon="8.241913318634033">
        <ele>299.5880126953125</ele>
        <time>2005-12-11T09:48:43Z</time>
      </trkpt>
      <trkpt lat="45.606822967529297" lon="8.241827487945557">
        <ele>300.0687255859375</ele>
        <time>2005-12-11T09:48:54Z</time>
      </trkpt>
      <trkpt lat="45.607209205627441" lon="8.241891860961914">
        <ele>302.471923828125</ele>
        <time>2005-12-11T09:49:04Z</time>
      </trkpt>
      <trkpt lat="45.607616901397705" lon="8.242106437683106">
        <ele>302.9525146484375</ele>
        <time>2005-12-11T09:49:16Z</time>
      </trkpt>
      <trkpt lat="45.608088970184326" lon="8.242299556732178">
        <ele>301.9913330078125</ele>
        <time>2005-12-11T09:49:28Z</time>
      </trkpt>
      <trkpt lat="45.608432292938232" lon="8.242471218109131">
        <ele>301.5106201171875</ele>
        <time>2005-12-11T09:49:37Z</time>
      </trkpt>
      <trkpt lat="45.608797073364258" lon="8.242814540863037">
        <ele>301.9913330078125</ele>
        <time>2005-12-11T09:49:48Z</time>
      </trkpt>
      <trkpt lat="45.609226226806641" lon="8.243072032928467">
        <ele>302.471923828125</ele>
        <time>2005-12-11T09:50:00Z</time>
      </trkpt>
      <trkpt lat="45.609698295593262" lon="8.24324369430542">
        <ele>303.4332275390625</ele>
        <time>2005-12-11T09:50:12Z</time>
      </trkpt>
      <trkpt lat="45.610213279724121" lon="8.243286609649658">
        <ele>305.35595703125</ele>
        <time>2005-12-11T09:50:25Z</time>
      </trkpt>
      <trkpt lat="45.610513687133789" lon="8.243329524993897">
        <ele>305.35595703125</ele>
        <time>2005-12-11T09:50:33Z</time>
      </trkpt>
      <trkpt lat="45.610942840576172" lon="8.243608474731445">
        <ele>306.3172607421875</ele>
        <time>2005-12-11T09:50:45Z</time>
      </trkpt>
      <trkpt lat="45.611436367034912" lon="8.243758678436279">
        <ele>307.278564453125</ele>
        <time>2005-12-11T09:50:58Z</time>
      </trkpt>
      <trkpt lat="45.612015724182129" lon="8.243930339813232">
        <ele>309.201171875</ele>
        <time>2005-12-11T09:51:14Z</time>
      </trkpt>
      <trkpt lat="45.612509250640869" lon="8.244123458862305">
        <ele>312.085205078125</ele>
        <time>2005-12-11T09:51:28Z</time>
      </trkpt>
      <trkpt lat="45.612895488739014" lon="8.244402408599854">
        <ele>312.5657958984375</ele>
        <time>2005-12-11T09:51:40Z</time>
      </trkpt>
      <trkpt lat="45.613303184509277" lon="8.244702816009522">
        <ele>313.5272216796875</ele>
        <time>2005-12-11T09:51:52Z</time>
      </trkpt>
      <trkpt lat="45.61373233795166" lon="8.24498176574707">
        <ele>315.4498291015625</ele>
        <time>2005-12-11T09:52:05Z</time>
      </trkpt>
      <trkpt lat="45.614161491394043" lon="8.245196342468262">
        <ele>316.8917236328125</ele>
        <time>2005-12-11T09:52:17Z</time>
      </trkpt>
      <trkpt lat="45.614547729492188" lon="8.245518207550049">
        <ele>317.85302734375</ele>
        <time>2005-12-11T09:52:29Z</time>
      </trkpt>
      <trkpt lat="45.614891052246094" lon="8.245904445648193">
        <ele>318.3336181640625</ele>
        <time>2005-12-11T09:52:41Z</time>
      </trkpt>
      <trkpt lat="45.614933967590332" lon="8.245968818664551">
        <ele>318.3336181640625</ele>
        <time>2005-12-11T09:52:43Z</time>
      </trkpt>
      <trkpt lat="45.615105628967285" lon="8.246033191680908">
        <ele>318.8143310546875</ele>
        <time>2005-12-11T09:52:47Z</time>
      </trkpt>
      <trkpt lat="45.615620613098145" lon="8.246033191680908">
        <ele>319.2950439453125</ele>
        <time>2005-12-11T09:52:59Z</time>
      </trkpt>
      <trkpt lat="45.615770816802979" lon="8.246011734008789">
        <ele>319.2950439453125</ele>
        <time>2005-12-11T09:53:03Z</time>
      </trkpt>
      <trkpt lat="45.6162428855896" lon="8.245797157287598">
        <ele>320.25634765625</ele>
        <time>2005-12-11T09:53:15Z</time>
      </trkpt>
      <trkpt lat="45.616521835327148" lon="8.245475292205811">
        <ele>319.775634765625</ele>
        <time>2005-12-11T09:53:24Z</time>
      </trkpt>
      <trkpt lat="45.61673641204834" lon="8.245067596435547">
        <ele>319.2950439453125</ele>
        <time>2005-12-11T09:53:33Z</time>
      </trkpt>
      <trkpt lat="45.616757869720459" lon="8.244638442993164">
        <ele>319.775634765625</ele>
        <time>2005-12-11T09:53:41Z</time>
      </trkpt>
      <trkpt lat="45.616714954376221" lon="8.243973255157471">
        <ele>322.178955078125</ele>
        <time>2005-12-11T09:53:53Z</time>
      </trkpt>
      <trkpt lat="45.616843700408936" lon="8.243522644042969">
        <ele>322.65966796875</ele>
        <time>2005-12-11T09:54:02Z</time>
      </trkpt>
      <trkpt lat="45.617101192474365" lon="8.242900371551514">
        <ele>323.140380859375</ele>
        <time>2005-12-11T09:54:15Z</time>
      </trkpt>
      <trkpt lat="45.617380142211914" lon="8.242578506469727">
        <ele>324.1015625</ele>
        <time>2005-12-11T09:54:24Z</time>
      </trkpt>
      <trkpt lat="45.617830753326416" lon="8.242170810699463">
        <ele>326.5048828125</ele>
        <time>2005-12-11T09:54:37Z</time>
      </trkpt>
      <trkpt lat="45.617938041687012" lon="8.241827487945557">
        <ele>327.94677734375</ele>
        <time>2005-12-11T09:54:44Z</time>
      </trkpt>
      <trkpt lat="45.617959499359131" lon="8.241333961486816">
        <ele>328.9083251953125</ele>
        <time>2005-12-11T09:54:53Z</time>
      </trkpt>
      <trkpt lat="45.61798095703125" lon="8.241269588470459">
        <ele>329.388916015625</ele>
        <time>2005-12-11T09:54:54Z</time>
      </trkpt>
      <trkpt lat="45.618195533752441" lon="8.240647315979004">
        <ele>328.4276123046875</ele>
        <time>2005-12-11T09:55:04Z</time>
      </trkpt>
      <trkpt lat="45.618281364440918" lon="8.24049711227417">
        <ele>328.4276123046875</ele>
        <time>2005-12-11T09:55:07Z</time>
      </trkpt>
      <trkpt lat="45.618431568145752" lon="8.240368366241455">
        <ele>328.4276123046875</ele>
        <time>2005-12-11T09:55:11Z</time>
      </trkpt>
      <trkpt lat="45.618925094604492" lon="8.24023962020874">
        <ele>329.388916015625</ele>
        <time>2005-12-11T09:55:23Z</time>
      </trkpt>
      <trkpt lat="45.619397163391113" lon="8.240067958831787">
        <ele>330.3502197265625</ele>
        <time>2005-12-11T09:55:35Z</time>
      </trkpt>
      <trkpt lat="45.619504451751709" lon="8.240025043487549">
        <ele>330.3502197265625</ele>
        <time>2005-12-11T09:55:38Z</time>
      </trkpt>
      <trkpt lat="45.619676113128662" lon="8.240046501159668">
        <ele>330.3502197265625</ele>
        <time>2005-12-11T09:55:42Z</time>
      </trkpt>
      <trkpt lat="45.62023401260376" lon="8.240218162536621">
        <ele>329.8695068359375</ele>
        <time>2005-12-11T09:55:56Z</time>
      </trkpt>
      <trkpt lat="45.620663166046143" lon="8.240368366241455">
        <ele>329.8695068359375</ele>
        <time>2005-12-11T09:56:07Z</time>
      </trkpt>
      <trkpt lat="45.621199607849121" lon="8.240540027618408">
        <ele>330.3502197265625</ele>
        <time>2005-12-11T09:56:21Z</time>
      </trkpt>
      <trkpt lat="45.621585845947266" lon="8.240690231323242">
        <ele>331.7921142578125</ele>
        <time>2005-12-11T09:56:31Z</time>
      </trkpt>
      <trkpt lat="45.621907711029053" lon="8.240883350372315">
        <ele>334.1954345703125</ele>
        <time>2005-12-11T09:56:40Z</time>
      </trkpt>
      <trkpt lat="45.62222957611084" lon="8.240926265716553">
        <ele>334.6761474609375</ele>
        <time>2005-12-11T09:56:48Z</time>
      </trkpt>
      <trkpt lat="45.622572898864746" lon="8.240840435028076">
        <ele>335.15673828125</ele>
        <time>2005-12-11T09:56:59Z</time>
      </trkpt>
      <trkpt lat="45.623087882995605" lon="8.240518569946289">
        <ele>337.56005859375</ele>
        <time>2005-12-11T09:57:14Z</time>
      </trkpt>
      <trkpt lat="45.623602867126465" lon="8.240196704864502">
        <ele>338.521484375</ele>
        <time>2005-12-11T09:57:28Z</time>
      </trkpt>
      <trkpt lat="45.62396764755249" lon="8.240089416503906">
        <ele>341.4052734375</ele>
        <time>2005-12-11T09:57:38Z</time>
      </trkpt>
      <trkpt lat="45.62422513961792" lon="8.239874839782715">
        <ele>341.885986328125</ele>
        <time>2005-12-11T09:57:46Z</time>
      </trkpt>
      <trkpt lat="45.624418258666992" lon="8.239552974700928">
        <ele>341.885986328125</ele>
        <time>2005-12-11T09:57:54Z</time>
      </trkpt>
      <trkpt lat="45.62446117401123" lon="8.239188194274902">
        <ele>342.8472900390625</ele>
        <time>2005-12-11T09:58:01Z</time>
      </trkpt>
      <trkpt lat="45.624396800994873" lon="8.238866329193115">
        <ele>342.8472900390625</ele>
        <time>2005-12-11T09:58:08Z</time>
      </trkpt>
      <trkpt lat="45.624203681945801" lon="8.238265514373779">
        <ele>346.692626953125</ele>
        <time>2005-12-11T09:58:20Z</time>
      </trkpt>
      <trkpt lat="45.62422513961792" lon="8.237857818603516">
        <ele>346.692626953125</ele>
        <time>2005-12-11T09:58:28Z</time>
      </trkpt>
      <trkpt lat="45.624396800994873" lon="8.237643241882324">
        <ele>347.1732177734375</ele>
        <time>2005-12-11T09:58:34Z</time>
      </trkpt>
      <trkpt lat="45.624697208404541" lon="8.237407207489014">
        <ele>347.1732177734375</ele>
        <time>2005-12-11T09:58:44Z</time>
      </trkpt>
      <trkpt lat="45.624997615814209" lon="8.237235546112061">
        <ele>348.1346435546875</ele>
        <time>2005-12-11T09:58:53Z</time>
      </trkpt>
      <trkpt lat="45.625276565551758" lon="8.237085342407227">
        <ele>348.1346435546875</ele>
        <time>2005-12-11T09:59:02Z</time>
      </trkpt>
      <trkpt lat="45.625619888305664" lon="8.237042427062988">
        <ele>349.0958251953125</ele>
        <time>2005-12-11T09:59:11Z</time>
      </trkpt>
      <trkpt lat="45.62596321105957" lon="8.236978054046631">
        <ele>349.5765380859375</ele>
        <time>2005-12-11T09:59:21Z</time>
      </trkpt>
      <trkpt lat="45.626349449157715" lon="8.236827850341797">
        <ele>350.0572509765625</ele>
        <time>2005-12-11T09:59:31Z</time>
      </trkpt>
      <trkpt lat="45.626885890960693" lon="8.236527442932129">
        <ele>351.4991455078125</ele>
        <time>2005-12-11T09:59:42Z</time>
      </trkpt>
      <trkpt lat="45.627164840698242" lon="8.236377239227295">
        <ele>352.941162109375</ele>
        <time>2005-12-11T09:59:50Z</time>
      </trkpt>
      <trkpt lat="45.627486705780029" lon="8.23624849319458">
        <ele>354.3831787109375</ele>
        <time>2005-12-11T10:00:01Z</time>
      </trkpt>
      <trkpt lat="45.627636909484863" lon="8.236162662506104">
        <ele>355.344482421875</ele>
        <time>2005-12-11T10:00:08Z</time>
      </trkpt>
      <trkpt lat="45.62795877456665" lon="8.23601245880127">
        <ele>356.3057861328125</ele>
        <time>2005-12-11T10:00:20Z</time>
      </trkpt>
      <trkpt lat="45.628151893615723" lon="8.236098289489746">
        <ele>356.3057861328125</ele>
        <time>2005-12-11T10:00:26Z</time>
      </trkpt>
      <trkpt lat="45.628430843353271" lon="8.23624849319458">
        <ele>356.786376953125</ele>
        <time>2005-12-11T10:00:35Z</time>
      </trkpt>
      <trkpt lat="45.628859996795654" lon="8.23624849319458">
        <ele>358.2283935546875</ele>
        <time>2005-12-11T10:00:47Z</time>
      </trkpt>
      <trkpt lat="45.629138946533203" lon="8.236269950866699">
        <ele>359.189697265625</ele>
        <time>2005-12-11T10:00:55Z</time>
      </trkpt>
      <trkpt lat="45.629546642303467" lon="8.236312866210938">
        <ele>358.2283935546875</ele>
        <time>2005-12-11T10:01:07Z</time>
      </trkpt>
      <trkpt lat="45.630040168762207" lon="8.236398696899414">
        <ele>358.2283935546875</ele>
        <time>2005-12-11T10:01:21Z</time>
      </trkpt>
      <trkpt lat="45.630576610565186" lon="8.236570358276367">
        <ele>358.708984375</ele>
        <time>2005-12-11T10:01:36Z</time>
      </trkpt>
      <trkpt lat="45.630898475646973" lon="8.236634731292725">
        <ele>360.151123046875</ele>
        <time>2005-12-11T10:01:45Z</time>
      </trkpt>
      <trkpt lat="45.63145637512207" lon="8.236548900604248">
        <ele>359.67041015625</ele>
        <time>2005-12-11T10:01:59Z</time>
      </trkpt>
      <trkpt lat="45.631885528564453" lon="8.236312866210938">
        <ele>357.747802734375</ele>
        <time>2005-12-11T10:02:14Z</time>
      </trkpt>
      <trkpt lat="45.631992816925049" lon="8.236141204833984">
        <ele>359.67041015625</ele>
        <time>2005-12-11T10:02:20Z</time>
      </trkpt>
      <trkpt lat="45.632078647613525" lon="8.23575496673584">
        <ele>360.6317138671875</ele>
        <time>2005-12-11T10:02:29Z</time>
      </trkpt>
      <trkpt lat="45.632185935974121" lon="8.235218524932861">
        <ele>361.5931396484375</ele>
        <time>2005-12-11T10:02:41Z</time>
      </trkpt>
      <trkpt lat="45.632250308990479" lon="8.234789371490479">
        <ele>362.07373046875</ele>
        <time>2005-12-11T10:02:50Z</time>
      </trkpt>
      <trkpt lat="45.632357597351074" lon="8.234274387359619">
        <ele>364.4769287109375</ele>
        <time>2005-12-11T10:03:02Z</time>
      </trkpt>
      <trkpt lat="45.632486343383789" lon="8.233780860900879">
        <ele>367.841552734375</ele>
        <time>2005-12-11T10:03:13Z</time>
      </trkpt>
      <trkpt lat="45.632507801055908" lon="8.233394622802734">
        <ele>369.7642822265625</ele>
        <time>2005-12-11T10:03:22Z</time>
      </trkpt>
      <trkpt lat="45.632636547088623" lon="8.233094215393066">
        <ele>372.16748046875</ele>
        <time>2005-12-11T10:03:30Z</time>
      </trkpt>
      <trkpt lat="45.632743835449219" lon="8.232879638671875">
        <ele>373.12890625</ele>
        <time>2005-12-11T10:03:38Z</time>
      </trkpt>
      <trkpt lat="45.632936954498291" lon="8.232600688934326">
        <ele>375.051513671875</ele>
        <time>2005-12-11T10:03:49Z</time>
      </trkpt>
      <trkpt lat="45.633087158203125" lon="8.232214450836182">
        <ele>375.5321044921875</ele>
        <time>2005-12-11T10:03:59Z</time>
      </trkpt>
      <trkpt lat="45.633108615875244" lon="8.231892585754395">
        <ele>377.454833984375</ele>
        <time>2005-12-11T10:04:07Z</time>
      </trkpt>
      <trkpt lat="45.633108615875244" lon="8.231420516967773">
        <ele>378.4161376953125</ele>
        <time>2005-12-11T10:04:20Z</time>
      </trkpt>
      <trkpt lat="45.633172988891602" lon="8.231141567230225">
        <ele>378.4161376953125</ele>
        <time>2005-12-11T10:04:29Z</time>
      </trkpt>
      <trkpt lat="45.633409023284912" lon="8.23101282119751">
        <ele>378.4161376953125</ele>
        <time>2005-12-11T10:04:39Z</time>
      </trkpt>
      <trkpt lat="45.633795261383057" lon="8.230948448181152">
        <ele>378.4161376953125</ele>
        <time>2005-12-11T10:04:54Z</time>
      </trkpt>
      <trkpt lat="45.63420295715332" lon="8.230862617492676">
        <ele>379.37744140625</ele>
        <time>2005-12-11T10:05:12Z</time>
      </trkpt>
      <trkpt lat="45.634610652923584" lon="8.230669498443604">
        <ele>381.300048828125</ele>
        <time>2005-12-11T10:05:30Z</time>
      </trkpt>
      <trkpt lat="45.635018348693848" lon="8.230390548706055">
        <ele>384.664794921875</ele>
        <time>2005-12-11T10:05:51Z</time>
      </trkpt>
      <trkpt lat="45.635340213775635" lon="8.230175971984863">
        <ele>387.0679931640625</ele>
        <time>2005-12-11T10:06:09Z</time>
      </trkpt>
      <trkpt lat="45.635619163513184" lon="8.23000431060791">
        <ele>388.510009765625</ele>
        <time>2005-12-11T10:06:22Z</time>
      </trkpt>
      <trkpt lat="45.635812282562256" lon="8.229897022247315">
        <ele>389.47119140625</ele>
        <time>2005-12-11T10:06:32Z</time>
      </trkpt>
      <trkpt lat="45.636026859283447" lon="8.229789733886719">
        <ele>391.393798828125</ele>
        <time>2005-12-11T10:06:42Z</time>
      </trkpt>
      <trkpt lat="45.636305809020996" lon="8.229639530181885">
        <ele>393.3165283203125</ele>
        <time>2005-12-11T10:06:54Z</time>
      </trkpt>
      <trkpt lat="45.636520385742187" lon="8.229467868804932">
        <ele>396.2005615234375</ele>
        <time>2005-12-11T10:07:06Z</time>
      </trkpt>
      <trkpt lat="45.636649131774902" lon="8.229296207427979">
        <ele>396.68115234375</ele>
        <time>2005-12-11T10:07:16Z</time>
      </trkpt>
      <trkpt lat="45.63671350479126" lon="8.229103088378906">
        <ele>398.1231689453125</ele>
        <time>2005-12-11T10:07:26Z</time>
      </trkpt>
      <trkpt lat="45.636777877807617" lon="8.228845596313477">
        <ele>400.5264892578125</ele>
        <time>2005-12-11T10:07:38Z</time>
      </trkpt>
      <trkpt lat="45.636777877807617" lon="8.228652477264404">
        <ele>401.968505859375</ele>
        <time>2005-12-11T10:07:47Z</time>
      </trkpt>
      <trkpt lat="45.636799335479736" lon="8.228437900543213">
        <ele>405.3330078125</ele>
        <time>2005-12-11T10:07:57Z</time>
      </trkpt>
      <trkpt lat="45.636799335479736" lon="8.228244781494141">
        <ele>406.77490234375</ele>
        <time>2005-12-11T10:08:07Z</time>
      </trkpt>
      <trkpt lat="45.636820793151855" lon="8.228030204772949">
        <ele>410.1396484375</ele>
        <time>2005-12-11T10:08:18Z</time>
      </trkpt>
      <trkpt lat="45.636885166168213" lon="8.227837085723877">
        <ele>412.062255859375</ele>
        <time>2005-12-11T10:08:29Z</time>
      </trkpt>
      <trkpt lat="45.63694953918457" lon="8.227643966674805">
        <ele>413.0235595703125</ele>
        <time>2005-12-11T10:08:41Z</time>
      </trkpt>
      <trkpt lat="45.637013912200928" lon="8.227450847625732">
        <ele>415.907470703125</ele>
        <time>2005-12-11T10:08:52Z</time>
      </trkpt>
      <trkpt lat="45.637056827545166" lon="8.227279186248779">
        <ele>417.349609375</ele>
        <time>2005-12-11T10:09:02Z</time>
      </trkpt>
      <trkpt lat="45.637099742889404" lon="8.227086067199707">
        <ele>418.310791015625</ele>
        <time>2005-12-11T10:09:14Z</time>
      </trkpt>
      <trkpt lat="45.637099742889404" lon="8.226914405822754">
        <ele>420.714111328125</ele>
        <time>2005-12-11T10:09:24Z</time>
      </trkpt>
      <trkpt lat="45.637099742889404" lon="8.226785659790039">
        <ele>422.156005859375</ele>
        <time>2005-12-11T10:09:32Z</time>
      </trkpt>
      <trkpt lat="45.637142658233643" lon="8.226699829101563">
        <ele>423.5980224609375</ele>
        <time>2005-12-11T10:09:37Z</time>
      </trkpt>
      <trkpt lat="45.637185573577881" lon="8.22676420211792">
        <ele>424.0787353515625</ele>
        <time>2005-12-11T10:09:42Z</time>
      </trkpt>
      <trkpt lat="45.637249946594238" lon="8.226978778839111">
        <ele>424.0787353515625</ele>
        <time>2005-12-11T10:09:55Z</time>
      </trkpt>
      <trkpt lat="45.637249946594238" lon="8.227064609527588">
        <ele>425.0401611328125</ele>
        <time>2005-12-11T10:09:59Z</time>
      </trkpt>
      <trkpt lat="45.63720703125" lon="8.227365016937256">
        <ele>426.4820556640625</ele>
        <time>2005-12-11T10:10:14Z</time>
      </trkpt>
      <trkpt lat="45.637185573577881" lon="8.22751522064209">
        <ele>428.4046630859375</ele>
        <time>2005-12-11T10:10:22Z</time>
      </trkpt>
      <trkpt lat="45.637142658233643" lon="8.227686882019043">
        <ele>430.3272705078125</ele>
        <time>2005-12-11T10:10:31Z</time>
      </trkpt>
      <trkpt lat="45.637099742889404" lon="8.227880001068115">
        <ele>430.8079833984375</ele>
        <time>2005-12-11T10:10:42Z</time>
      </trkpt>
      <trkpt lat="45.637099742889404" lon="8.228094577789307">
        <ele>432.730712890625</ele>
        <time>2005-12-11T10:10:54Z</time>
      </trkpt>
      <trkpt lat="45.637121200561523" lon="8.228373527526856">
        <ele>434.6533203125</ele>
        <time>2005-12-11T10:11:08Z</time>
      </trkpt>
      <trkpt lat="45.63720703125" lon="8.228631019592285">
        <ele>435.614501953125</ele>
        <time>2005-12-11T10:11:22Z</time>
      </trkpt>
      <trkpt lat="45.637249946594238" lon="8.228888511657715">
        <ele>436.09521484375</ele>
        <time>2005-12-11T10:11:34Z</time>
      </trkpt>
      <trkpt lat="45.637249946594238" lon="8.229081630706787">
        <ele>438.017822265625</ele>
        <time>2005-12-11T10:11:44Z</time>
      </trkpt>
      <trkpt lat="45.637228488922119" lon="8.229317665100098">
        <ele>440.90185546875</ele>
        <time>2005-12-11T10:11:58Z</time>
      </trkpt>
      <trkpt lat="45.637185573577881" lon="8.229553699493408">
        <ele>444.2664794921875</ele>
        <time>2005-12-11T10:12:11Z</time>
      </trkpt>
      <trkpt lat="45.637142658233643" lon="8.229618072509766">
        <ele>446.669677734375</ele>
        <time>2005-12-11T10:12:16Z</time>
      </trkpt>
      <trkpt lat="45.637121200561523" lon="8.229939937591553">
        <ele>446.1890869140625</ele>
        <time>2005-12-11T10:12:35Z</time>
      </trkpt>
      <trkpt lat="45.637142658233643" lon="8.230090141296387">
        <ele>447.1502685546875</ele>
        <time>2005-12-11T10:12:44Z</time>
      </trkpt>
      <trkpt lat="45.637271404266357" lon="8.230154514312744">
        <ele>448.11181640625</ele>
        <time>2005-12-11T10:12:53Z</time>
      </trkpt>
      <trkpt lat="45.637335777282715" lon="8.230133056640625">
        <ele>448.11181640625</ele>
        <time>2005-12-11T10:12:58Z</time>
      </trkpt>
      <trkpt lat="45.637400150299072" lon="8.230047225952148">
        <ele>448.5924072265625</ele>
        <time>2005-12-11T10:13:07Z</time>
      </trkpt>
      <trkpt lat="45.63746452331543" lon="8.229875564575195">
        <ele>450.034423828125</ele>
        <time>2005-12-11T10:13:18Z</time>
      </trkpt>
      <trkpt lat="45.637528896331787" lon="8.229725360870361">
        <ele>450.99560546875</ele>
        <time>2005-12-11T10:13:29Z</time>
      </trkpt>
      <trkpt lat="45.637593269348145" lon="8.229575157165527">
        <ele>450.99560546875</ele>
        <time>2005-12-11T10:13:40Z</time>
      </trkpt>
      <trkpt lat="45.63770055770874" lon="8.229403495788574">
        <ele>453.879638671875</ele>
        <time>2005-12-11T10:13:54Z</time>
      </trkpt>
      <trkpt lat="45.637764930725098" lon="8.229296207427979">
        <ele>456.282958984375</ele>
        <time>2005-12-11T10:14:04Z</time>
      </trkpt>
      <trkpt lat="45.637829303741455" lon="8.229188919067383">
        <ele>457.7249755859375</ele>
        <time>2005-12-11T10:14:12Z</time>
      </trkpt>
      <trkpt lat="45.637850761413574" lon="8.229146003723145">
        <ele>457.7249755859375</ele>
        <time>2005-12-11T10:14:16Z</time>
      </trkpt>
      <trkpt lat="45.637893676757813" lon="8.228995800018311">
        <ele>459.6475830078125</ele>
        <time>2005-12-11T10:14:27Z</time>
      </trkpt>
      <trkpt lat="45.637893676757813" lon="8.228867053985596">
        <ele>461.5701904296875</ele>
        <time>2005-12-11T10:14:39Z</time>
      </trkpt>
      <trkpt lat="45.637872219085693" lon="8.228738307952881">
        <ele>463.0120849609375</ele>
        <time>2005-12-11T10:14:51Z</time>
      </trkpt>
      <trkpt lat="45.637829303741455" lon="8.228588104248047">
        <ele>464.934814453125</ele>
        <time>2005-12-11T10:15:02Z</time>
      </trkpt>
      <trkpt lat="45.637764930725098" lon="8.228437900543213">
        <ele>465.8961181640625</ele>
        <time>2005-12-11T10:15:14Z</time>
      </trkpt>
      <trkpt lat="45.637722015380859" lon="8.228287696838379">
        <ele>466.857421875</ele>
        <time>2005-12-11T10:15:25Z</time>
      </trkpt>
      <trkpt lat="45.637722015380859" lon="8.22826623916626">
        <ele>467.8187255859375</ele>
        <time>2005-12-11T10:15:28Z</time>
      </trkpt>
      <trkpt lat="45.63770055770874" lon="8.228116035461426">
        <ele>469.7413330078125</ele>
        <time>2005-12-11T10:15:38Z</time>
      </trkpt>
      <trkpt lat="45.63770055770874" lon="8.228051662445068">
        <ele>469.7413330078125</ele>
        <time>2005-12-11T10:15:44Z</time>
      </trkpt>
      <trkpt lat="45.637743473052979" lon="8.227987289428711">
        <ele>470.70263671875</ele>
        <time>2005-12-11T10:15:48Z</time>
      </trkpt>
      <trkpt lat="45.637829303741455" lon="8.227965831756592">
        <ele>472.6253662109375</ele>
        <time>2005-12-11T10:15:57Z</time>
      </trkpt>
      <trkpt lat="45.637936592102051" lon="8.227987289428711">
        <ele>474.5479736328125</ele>
        <time>2005-12-11T10:16:09Z</time>
      </trkpt>
      <trkpt lat="45.638043880462646" lon="8.227965831756592">
        <ele>477.9124755859375</ele>
        <time>2005-12-11T10:16:20Z</time>
      </trkpt>
      <trkpt lat="45.638108253479004" lon="8.227965831756592">
        <ele>478.8739013671875</ele>
        <time>2005-12-11T10:16:28Z</time>
      </trkpt>
      <trkpt lat="45.6382155418396" lon="8.227944374084473">
        <ele>479.3544921875</ele>
        <time>2005-12-11T10:16:37Z</time>
      </trkpt>
      <trkpt lat="45.638258457183838" lon="8.227922916412354">
        <ele>479.8350830078125</ele>
        <time>2005-12-11T10:16:43Z</time>
      </trkpt>
      <trkpt lat="45.638365745544434" lon="8.227880001068115">
        <ele>480.796630859375</ele>
        <time>2005-12-11T10:16:53Z</time>
      </trkpt>
      <trkpt lat="45.638473033905029" lon="8.227794170379639">
        <ele>481.7578125</ele>
        <time>2005-12-11T10:17:03Z</time>
      </trkpt>
      <trkpt lat="45.638537406921387" lon="8.227708339691162">
        <ele>481.7578125</ele>
        <time>2005-12-11T10:17:11Z</time>
      </trkpt>
      <trkpt lat="45.638537406921387" lon="8.227686882019043">
        <ele>480.796630859375</ele>
        <time>2005-12-11T10:17:16Z</time>
      </trkpt>
      <trkpt lat="45.638515949249268" lon="8.227643966674805">
        <ele>479.3544921875</ele>
        <time>2005-12-11T10:18:42Z</time>
      </trkpt>
      <trkpt lat="45.638558864593506" lon="8.227536678314209">
        <ele>479.8350830078125</ele>
        <time>2005-12-11T10:18:50Z</time>
      </trkpt>
      <trkpt lat="45.638644695281982" lon="8.227365016937256">
        <ele>481.7578125</ele>
        <time>2005-12-11T10:18:59Z</time>
      </trkpt>
      <trkpt lat="45.638687610626221" lon="8.227128982543945">
        <ele>483.1998291015625</ele>
        <time>2005-12-11T10:19:12Z</time>
      </trkpt>
      <trkpt lat="45.638730525970459" lon="8.226914405822754">
        <ele>483.680419921875</ele>
        <time>2005-12-11T10:19:23Z</time>
      </trkpt>
      <trkpt lat="45.638794898986816" lon="8.226742744445801">
        <ele>484.1611328125</ele>
        <time>2005-12-11T10:19:33Z</time>
      </trkpt>
      <trkpt lat="45.638902187347412" lon="8.226571083068848">
        <ele>486.564453125</ele>
        <time>2005-12-11T10:19:46Z</time>
      </trkpt>
      <trkpt lat="45.639030933380127" lon="8.226485252380371">
        <ele>487.525634765625</ele>
        <time>2005-12-11T10:19:56Z</time>
      </trkpt>
      <trkpt lat="45.639159679412842" lon="8.226399421691895">
        <ele>491.8516845703125</ele>
        <time>2005-12-11T10:20:07Z</time>
      </trkpt>
      <trkpt lat="45.63920259475708" lon="8.226399421691895">
        <ele>488.4871826171875</ele>
        <time>2005-12-11T10:20:12Z</time>
      </trkpt>
      <trkpt lat="45.639309883117676" lon="8.226442337036133">
        <ele>485.1224365234375</ele>
        <time>2005-12-11T10:20:21Z</time>
      </trkpt>
      <trkpt lat="45.639374256134033" lon="8.226528167724609">
        <ele>486.083740234375</ele>
        <time>2005-12-11T10:20:30Z</time>
      </trkpt>
      <trkpt lat="45.639481544494629" lon="8.22650671005249">
        <ele>487.525634765625</ele>
        <time>2005-12-11T10:20:40Z</time>
      </trkpt>
      <trkpt lat="45.639631748199463" lon="8.226377964019775">
        <ele>490.890380859375</ele>
        <time>2005-12-11T10:20:53Z</time>
      </trkpt>
      <trkpt lat="45.639739036560059" lon="8.226249217987061">
        <ele>493.7742919921875</ele>
        <time>2005-12-11T10:21:05Z</time>
      </trkpt>
      <trkpt lat="45.639824867248535" lon="8.226141929626465">
        <ele>496.6583251953125</ele>
        <time>2005-12-11T10:21:14Z</time>
      </trkpt>
      <trkpt lat="45.639910697937012" lon="8.226034641265869">
        <ele>499.0615234375</ele>
        <time>2005-12-11T10:21:25Z</time>
      </trkpt>
      <trkpt lat="45.640039443969727" lon="8.225948810577393">
        <ele>502.90673828125</ele>
        <time>2005-12-11T10:21:38Z</time>
      </trkpt>
      <trkpt lat="45.640146732330322" lon="8.225884437561035">
        <ele>504.8294677734375</ele>
        <time>2005-12-11T10:21:48Z</time>
      </trkpt>
      <trkpt lat="45.640254020690918" lon="8.22577714920044">
        <ele>506.7520751953125</ele>
        <time>2005-12-11T10:22:00Z</time>
      </trkpt>
      <trkpt lat="45.640361309051514" lon="8.225648403167725">
        <ele>509.1553955078125</ele>
        <time>2005-12-11T10:22:13Z</time>
      </trkpt>
      <trkpt lat="45.64044713973999" lon="8.22551965713501">
        <ele>510.11669921875</ele>
        <time>2005-12-11T10:22:23Z</time>
      </trkpt>
      <trkpt lat="45.640575885772705" lon="8.225390911102295">
        <ele>512.0394287109375</ele>
        <time>2005-12-11T10:22:36Z</time>
      </trkpt>
      <trkpt lat="45.640726089477539" lon="8.225283622741699">
        <ele>513.000732421875</ele>
        <time>2005-12-11T10:22:48Z</time>
      </trkpt>
      <trkpt lat="45.640854835510254" lon="8.225219249725342">
        <ele>514.442626953125</ele>
        <time>2005-12-11T10:22:59Z</time>
      </trkpt>
      <trkpt lat="45.641005039215088" lon="8.225219249725342">
        <ele>517.32666015625</ele>
        <time>2005-12-11T10:23:11Z</time>
      </trkpt>
      <trkpt lat="45.641155242919922" lon="8.225283622741699">
        <ele>519.7298583984375</ele>
        <time>2005-12-11T10:23:25Z</time>
      </trkpt>
      <trkpt lat="45.641262531280518" lon="8.225326538085938">
        <ele>521.1719970703125</ele>
        <time>2005-12-11T10:23:35Z</time>
      </trkpt>
      <trkpt lat="45.641391277313232" lon="8.225347995758057">
        <ele>521.652587890625</ele>
        <time>2005-12-11T10:23:45Z</time>
      </trkpt>
      <trkpt lat="45.641541481018066" lon="8.225283622741699">
        <ele>523.0946044921875</ele>
        <time>2005-12-11T10:23:56Z</time>
      </trkpt>
      <trkpt lat="45.641627311706543" lon="8.225176334381104">
        <ele>524.0557861328125</ele>
        <time>2005-12-11T10:24:05Z</time>
      </trkpt>
      <trkpt lat="45.641734600067139" lon="8.22500467300415">
        <ele>524.0557861328125</ele>
        <time>2005-12-11T10:24:17Z</time>
      </trkpt>
      <trkpt lat="45.641884803771973" lon="8.224897384643555">
        <ele>524.0557861328125</ele>
        <time>2005-12-11T10:24:30Z</time>
      </trkpt>
      <trkpt lat="45.642013549804688" lon="8.224833011627197">
        <ele>524.5364990234375</ele>
        <time>2005-12-11T10:24:41Z</time>
      </trkpt>
      <trkpt lat="45.642120838165283" lon="8.224682807922363">
        <ele>524.5364990234375</ele>
        <time>2005-12-11T10:24:53Z</time>
      </trkpt>
      <trkpt lat="45.642185211181641" lon="8.224468231201172">
        <ele>524.0557861328125</ele>
        <time>2005-12-11T10:25:06Z</time>
      </trkpt>
      <trkpt lat="45.64220666885376" lon="8.224403858184815">
        <ele>525.0172119140625</ele>
        <time>2005-12-11T10:25:13Z</time>
      </trkpt>
      <trkpt lat="45.642249584197998" lon="8.224253654479981">
        <ele>522.6138916015625</ele>
        <time>2005-12-11T10:26:37Z</time>
      </trkpt>
      <trkpt lat="45.642249584197998" lon="8.224296569824219">
        <ele>526.4591064453125</ele>
        <time>2005-12-11T10:26:50Z</time>
      </trkpt>
      <trkpt lat="45.642249584197998" lon="8.224253654479981">
        <ele>529.82373046875</ele>
        <time>2005-12-11T10:27:06Z</time>
      </trkpt>
      <trkpt lat="45.642249584197998" lon="8.224146366119385">
        <ele>530.304443359375</ele>
        <time>2005-12-11T10:27:12Z</time>
      </trkpt>
      <trkpt lat="45.642292499542236" lon="8.223953247070313">
        <ele>530.304443359375</ele>
        <time>2005-12-11T10:27:22Z</time>
      </trkpt>
      <trkpt lat="45.642313957214355" lon="8.223803043365479">
        <ele>531.2657470703125</ele>
        <time>2005-12-11T10:27:31Z</time>
      </trkpt>
      <trkpt lat="45.642335414886475" lon="8.223631381988525">
        <ele>532.22705078125</ele>
        <time>2005-12-11T10:27:41Z</time>
      </trkpt>
      <trkpt lat="45.642356872558594" lon="8.223438262939453">
        <ele>535.1109619140625</ele>
        <time>2005-12-11T10:27:52Z</time>
      </trkpt>
      <trkpt lat="45.642378330230713" lon="8.223202228546143">
        <ele>536.5531005859375</ele>
        <time>2005-12-11T10:28:05Z</time>
      </trkpt>
      <trkpt lat="45.642356872558594" lon="8.222966194152832">
        <ele>539.9176025390625</ele>
        <time>2005-12-11T10:28:19Z</time>
      </trkpt>
      <trkpt lat="45.642356872558594" lon="8.222751617431641">
        <ele>541.8402099609375</ele>
        <time>2005-12-11T10:28:30Z</time>
      </trkpt>
      <trkpt lat="45.642356872558594" lon="8.222429752349854">
        <ele>542.801513671875</ele>
        <time>2005-12-11T10:28:44Z</time>
      </trkpt>
      <trkpt lat="45.642378330230713" lon="8.222172260284424">
        <ele>541.8402099609375</ele>
        <time>2005-12-11T10:28:55Z</time>
      </trkpt>
      <trkpt lat="45.642378330230713" lon="8.221957683563232">
        <ele>544.7242431640625</ele>
        <time>2005-12-11T10:29:05Z</time>
      </trkpt>
      <trkpt lat="45.642335414886475" lon="8.221786022186279">
        <ele>542.3209228515625</ele>
        <time>2005-12-11T10:29:14Z</time>
      </trkpt>
      <trkpt lat="45.642163753509521" lon="8.221678733825684">
        <ele>544.24365234375</ele>
        <time>2005-12-11T10:29:26Z</time>
      </trkpt>
      <trkpt lat="45.64194917678833" lon="8.221592903137207">
        <ele>548.0888671875</ele>
        <time>2005-12-11T10:29:40Z</time>
      </trkpt>
      <trkpt lat="45.641756057739258" lon="8.221592903137207">
        <ele>550.4921875</ele>
        <time>2005-12-11T10:29:52Z</time>
      </trkpt>
      <trkpt lat="45.641584396362305" lon="8.221678733825684">
        <ele>550.97265625</ele>
        <time>2005-12-11T10:30:05Z</time>
      </trkpt>
      <trkpt lat="45.641348361968994" lon="8.221721649169922">
        <ele>552.41455078125</ele>
        <time>2005-12-11T10:30:19Z</time>
      </trkpt>
      <trkpt lat="45.641241073608398" lon="8.221614360809326">
        <ele>553.3759765625</ele>
        <time>2005-12-11T10:30:27Z</time>
      </trkpt>
      <trkpt lat="45.641176700592041" lon="8.221399784088135">
        <ele>554.81787109375</ele>
        <time>2005-12-11T10:30:36Z</time>
      </trkpt>
      <trkpt lat="45.641133785247803" lon="8.221142292022705">
        <ele>557.221435546875</ele>
        <time>2005-12-11T10:30:48Z</time>
      </trkpt>
      <trkpt lat="45.640983581542969" lon="8.220970630645752">
        <ele>557.221435546875</ele>
        <time>2005-12-11T10:31:00Z</time>
      </trkpt>
      <trkpt lat="45.640876293182373" lon="8.220841884613037">
        <ele>558.663330078125</ele>
        <time>2005-12-11T10:31:10Z</time>
      </trkpt>
      <trkpt lat="45.640854835510254" lon="8.220691680908203">
        <ele>560.105224609375</ele>
        <time>2005-12-11T10:31:17Z</time>
      </trkpt>
      <trkpt lat="45.640897750854492" lon="8.220498561859131">
        <ele>562.028076171875</ele>
        <time>2005-12-11T10:31:27Z</time>
      </trkpt>
      <trkpt lat="45.641005039215088" lon="8.220369815826416">
        <ele>564.43115234375</ele>
        <time>2005-12-11T10:31:37Z</time>
      </trkpt>
      <trkpt lat="45.641133785247803" lon="8.220198154449463">
        <ele>564.911865234375</ele>
        <time>2005-12-11T10:31:50Z</time>
      </trkpt>
      <trkpt lat="45.641262531280518" lon="8.219983577728272">
        <ele>567.795654296875</ele>
        <time>2005-12-11T10:32:04Z</time>
      </trkpt>
      <trkpt lat="45.641369819641113" lon="8.219747543334961">
        <ele>568.757080078125</ele>
        <time>2005-12-11T10:32:18Z</time>
      </trkpt>
      <trkpt lat="45.641434192657471" lon="8.219597339630127">
        <ele>570.198974609375</ele>
        <time>2005-12-11T10:32:27Z</time>
      </trkpt>
      <trkpt lat="45.641434192657471" lon="8.219382762908936">
        <ele>571.640869140625</ele>
        <time>2005-12-11T10:32:38Z</time>
      </trkpt>
      <trkpt lat="45.641348361968994" lon="8.219189643859863">
        <ele>573.083251953125</ele>
        <time>2005-12-11T10:32:50Z</time>
      </trkpt>
      <trkpt lat="45.641283988952637" lon="8.219060897827148">
        <ele>574.525146484375</ele>
        <time>2005-12-11T10:32:57Z</time>
      </trkpt>
      <trkpt lat="45.641369819641113" lon="8.218953609466553">
        <ele>575.486328125</ele>
        <time>2005-12-11T10:33:06Z</time>
      </trkpt>
      <trkpt lat="45.641391277313232" lon="8.218953609466553">
        <ele>575.967041015625</ele>
        <time>2005-12-11T10:33:07Z</time>
      </trkpt>
      <trkpt lat="45.641498565673828" lon="8.219146728515625">
        <ele>577.4091796875</ele>
        <time>2005-12-11T10:33:20Z</time>
      </trkpt>
      <trkpt lat="45.641627311706543" lon="8.219318389892578">
        <ele>578.370361328125</ele>
        <time>2005-12-11T10:33:32Z</time>
      </trkpt>
      <trkpt lat="45.641734600067139" lon="8.21953296661377">
        <ele>579.812255859375</ele>
        <time>2005-12-11T10:33:45Z</time>
      </trkpt>
      <trkpt lat="45.64171314239502" lon="8.219704627990723">
        <ele>581.25439453125</ele>
        <time>2005-12-11T10:33:53Z</time>
      </trkpt>
      <trkpt lat="45.641605854034424" lon="8.219919204711914">
        <ele>583.1767578125</ele>
        <time>2005-12-11T10:34:05Z</time>
      </trkpt>
      <trkpt lat="45.641541481018066" lon="8.220090866088867">
        <ele>584.13818359375</ele>
        <time>2005-12-11T10:34:15Z</time>
      </trkpt>
      <trkpt lat="45.641498565673828" lon="8.220348358154297">
        <ele>585.099609375</ele>
        <time>2005-12-11T10:34:28Z</time>
      </trkpt>
      <trkpt lat="45.641562938690186" lon="8.220455646514893">
        <ele>586.060791015625</ele>
        <time>2005-12-11T10:34:35Z</time>
      </trkpt>
      <trkpt lat="45.641648769378662" lon="8.220434188842773">
        <ele>586.54150390625</ele>
        <time>2005-12-11T10:34:41Z</time>
      </trkpt>
      <trkpt lat="45.6416916847229" lon="8.220391273498535">
        <ele>587.02197265625</ele>
        <time>2005-12-11T10:34:45Z</time>
      </trkpt>
      <trkpt lat="45.641756057739258" lon="8.220241069793701">
        <ele>587.9833984375</ele>
        <time>2005-12-11T10:34:54Z</time>
      </trkpt>
      <trkpt lat="45.641820430755615" lon="8.220090866088867">
        <ele>589.425537109375</ele>
        <time>2005-12-11T10:35:04Z</time>
      </trkpt>
      <trkpt lat="45.641863346099854" lon="8.219940662384033">
        <ele>590.867431640625</ele>
        <time>2005-12-11T10:35:13Z</time>
      </trkpt>
      <trkpt lat="45.641884803771973" lon="8.219897747039795">
        <ele>591.34814453125</ele>
        <time>2005-12-11T10:35:16Z</time>
      </trkpt>
      <trkpt lat="45.64194917678833" lon="8.219726085662842">
        <ele>593.270751953125</ele>
        <time>2005-12-11T10:35:28Z</time>
      </trkpt>
      <trkpt lat="45.642013549804688" lon="8.219554424285889">
        <ele>594.232177734375</ele>
        <time>2005-12-11T10:35:39Z</time>
      </trkpt>
      <trkpt lat="45.642035007476807" lon="8.21951150894165">
        <ele>594.232177734375</ele>
        <time>2005-12-11T10:35:41Z</time>
      </trkpt>
      <trkpt lat="45.642035007476807" lon="8.219425678253174">
        <ele>595.193359375</ele>
        <time>2005-12-11T10:35:47Z</time>
      </trkpt>
      <trkpt lat="45.642035007476807" lon="8.219232559204102">
        <ele>597.115966796875</ele>
        <time>2005-12-11T10:35:58Z</time>
      </trkpt>
      <trkpt lat="45.642077922821045" lon="8.219060897827148">
        <ele>599.03857421875</ele>
        <time>2005-12-11T10:36:10Z</time>
      </trkpt>
      <trkpt lat="45.642142295837402" lon="8.218889236450195">
        <ele>600.961181640625</ele>
        <time>2005-12-11T10:36:22Z</time>
      </trkpt>
      <trkpt lat="45.64220666885376" lon="8.2187819480896">
        <ele>602.8837890625</ele>
        <time>2005-12-11T10:36:33Z</time>
      </trkpt>
      <trkpt lat="45.642292499542236" lon="8.218674659729004">
        <ele>604.806640625</ele>
        <time>2005-12-11T10:36:44Z</time>
      </trkpt>
      <trkpt lat="45.642378330230713" lon="8.218588829040527">
        <ele>606.24853515625</ele>
        <time>2005-12-11T10:36:55Z</time>
      </trkpt>
      <trkpt lat="45.64244270324707" lon="8.218502998352051">
        <ele>606.729248046875</ele>
        <time>2005-12-11T10:37:04Z</time>
      </trkpt>
      <trkpt lat="45.642507076263428" lon="8.218395709991455">
        <ele>608.65185546875</ele>
        <time>2005-12-11T10:37:13Z</time>
      </trkpt>
      <trkpt lat="45.642528533935547" lon="8.218374252319336">
        <ele>609.61328125</ele>
        <time>2005-12-11T10:37:16Z</time>
      </trkpt>
      <trkpt lat="45.642614364624023" lon="8.21826696395874">
        <ele>611.05517578125</ele>
        <time>2005-12-11T10:37:26Z</time>
      </trkpt>
      <trkpt lat="45.6427001953125" lon="8.218116760253906">
        <ele>612.0166015625</ele>
        <time>2005-12-11T10:37:38Z</time>
      </trkpt>
      <trkpt lat="45.642786026000977" lon="8.217988014221191">
        <ele>612.977783203125</ele>
        <time>2005-12-11T10:37:48Z</time>
      </trkpt>
      <trkpt lat="45.642828941345215" lon="8.217923641204834">
        <ele>612.977783203125</ele>
        <time>2005-12-11T10:37:55Z</time>
      </trkpt>
      <trkpt lat="45.642914772033691" lon="8.2177734375">
        <ele>614.419677734375</ele>
        <time>2005-12-11T10:38:08Z</time>
      </trkpt>
      <trkpt lat="45.643022060394287" lon="8.217601776123047">
        <ele>616.34228515625</ele>
        <time>2005-12-11T10:38:22Z</time>
      </trkpt>
      <trkpt lat="45.643107891082764" lon="8.21751594543457">
        <ele>617.7841796875</ele>
        <time>2005-12-11T10:38:31Z</time>
      </trkpt>
      <trkpt lat="45.64319372177124" lon="8.217451572418213">
        <ele>619.226318359375</ele>
        <time>2005-12-11T10:38:41Z</time>
      </trkpt>
      <trkpt lat="45.643301010131836" lon="8.217322826385498">
        <ele>620.66845703125</ele>
        <time>2005-12-11T10:38:54Z</time>
      </trkpt>
      <trkpt lat="45.643365383148193" lon="8.217194080352783">
        <ele>621.629638671875</ele>
        <time>2005-12-11T10:39:03Z</time>
      </trkpt>
      <trkpt lat="45.643472671508789" lon="8.21702241897583">
        <ele>623.07177734375</ele>
        <time>2005-12-11T10:39:15Z</time>
      </trkpt>
      <trkpt lat="45.643558502197266" lon="8.216850757598877">
        <ele>625.474853515625</ele>
        <time>2005-12-11T10:39:27Z</time>
      </trkpt>
      <trkpt lat="45.643665790557861" lon="8.216679096221924">
        <ele>628.35888671875</ele>
        <time>2005-12-11T10:39:39Z</time>
      </trkpt>
      <trkpt lat="45.643751621246338" lon="8.21652889251709">
        <ele>629.80078125</ele>
        <time>2005-12-11T10:39:50Z</time>
      </trkpt>
      <trkpt lat="45.643815994262695" lon="8.216421604156494">
        <ele>631.242919921875</ele>
        <time>2005-12-11T10:39:59Z</time>
      </trkpt>
      <trkpt lat="45.643901824951172" lon="8.216292858123779">
        <ele>631.723388671875</ele>
        <time>2005-12-11T10:40:10Z</time>
      </trkpt>
      <trkpt lat="45.643923282623291" lon="8.216249942779541">
        <ele>631.723388671875</ele>
        <time>2005-12-11T10:40:14Z</time>
      </trkpt>
      <trkpt lat="45.643987655639648" lon="8.216121196746826">
        <ele>633.165283203125</ele>
        <time>2005-12-11T10:40:24Z</time>
      </trkpt>
      <trkpt lat="45.644073486328125" lon="8.215992450714111">
        <ele>634.126708984375</ele>
        <time>2005-12-11T10:40:35Z</time>
      </trkpt>
      <trkpt lat="45.644137859344482" lon="8.215842247009277">
        <ele>635.568603515625</ele>
        <time>2005-12-11T10:40:47Z</time>
      </trkpt>
      <trkpt lat="45.644180774688721" lon="8.215692043304443">
        <ele>637.491455078125</ele>
        <time>2005-12-11T10:40:57Z</time>
      </trkpt>
      <trkpt lat="45.644223690032959" lon="8.215563297271729">
        <ele>638.452880859375</ele>
        <time>2005-12-11T10:41:06Z</time>
      </trkpt>
      <trkpt lat="45.644245147705078" lon="8.21552038192749">
        <ele>638.93359375</ele>
        <time>2005-12-11T10:41:10Z</time>
      </trkpt>
      <trkpt lat="45.644266605377197" lon="8.215498924255371">
        <ele>638.93359375</ele>
        <time>2005-12-11T10:41:12Z</time>
      </trkpt>
      <trkpt lat="45.644309520721436" lon="8.215348720550537">
        <ele>639.894775390625</ele>
        <time>2005-12-11T10:41:22Z</time>
      </trkpt>
      <trkpt lat="45.644373893737793" lon="8.215177059173584">
        <ele>642.77880859375</ele>
        <time>2005-12-11T10:41:35Z</time>
      </trkpt>
      <trkpt lat="45.64443826675415" lon="8.215069770812988">
        <ele>643.739990234375</ele>
        <time>2005-12-11T10:41:46Z</time>
      </trkpt>
      <trkpt lat="45.644524097442627" lon="8.214941024780273">
        <ele>644.701171875</ele>
        <time>2005-12-11T10:41:57Z</time>
      </trkpt>
      <trkpt lat="45.644588470458984" lon="8.214747905731201">
        <ele>646.6240234375</ele>
        <time>2005-12-11T10:42:10Z</time>
      </trkpt>
      <trkpt lat="45.64469575881958" lon="8.214597702026367">
        <ele>647.585205078125</ele>
        <time>2005-12-11T10:42:22Z</time>
      </trkpt>
      <trkpt lat="45.644824504852295" lon="8.214426040649414">
        <ele>649.5078125</ele>
        <time>2005-12-11T10:42:35Z</time>
      </trkpt>
      <trkpt lat="45.644824504852295" lon="8.214404582977295">
        <ele>651.430419921875</ele>
        <time>2005-12-11T10:42:42Z</time>
      </trkpt>
      <trkpt lat="45.644738674163818" lon="8.214404582977295">
        <ele>654.314697265625</ele>
        <time>2005-12-11T10:43:37Z</time>
      </trkpt>
      <trkpt lat="45.644781589508057" lon="8.214340209960938">
        <ele>656.237060546875</ele>
        <time>2005-12-11T10:43:56Z</time>
      </trkpt>
      <trkpt lat="45.64469575881958" lon="8.214254379272461">
        <ele>655.27587890625</ele>
        <time>2005-12-11T10:44:05Z</time>
      </trkpt>
      <trkpt lat="45.644609928131104" lon="8.214190006256104">
        <ele>654.314697265625</ele>
        <time>2005-12-11T10:44:16Z</time>
      </trkpt>
      <trkpt lat="45.644545555114746" lon="8.214104175567627">
        <ele>653.833984375</ele>
        <time>2005-12-11T10:44:29Z</time>
      </trkpt>
      <trkpt lat="45.64443826675415" lon="8.21401834487915">
        <ele>656.7177734375</ele>
        <time>2005-12-11T10:44:41Z</time>
      </trkpt>
      <trkpt lat="45.644373893737793" lon="8.21401834487915">
        <ele>655.756591796875</ele>
        <time>2005-12-11T10:44:50Z</time>
      </trkpt>
      <trkpt lat="45.644352436065674" lon="8.21401834487915">
        <ele>660.082275390625</ele>
        <time>2005-12-11T10:45:00Z</time>
      </trkpt>
      <trkpt lat="45.644373893737793" lon="8.21403980255127">
        <ele>661.5244140625</ele>
        <time>2005-12-11T10:45:18Z</time>
      </trkpt>
      <trkpt lat="45.644352436065674" lon="8.213996887207031">
        <ele>661.5244140625</ele>
        <time>2005-12-11T10:45:34Z</time>
      </trkpt>
      <trkpt lat="45.644159317016602" lon="8.21401834487915">
        <ele>660.082275390625</ele>
        <time>2005-12-11T10:45:45Z</time>
      </trkpt>
      <trkpt lat="45.643837451934814" lon="8.213889598846436">
        <ele>659.12109375</ele>
        <time>2005-12-11T10:45:56Z</time>
      </trkpt>
      <trkpt lat="45.643815994262695" lon="8.213868141174316">
        <ele>658.640380859375</ele>
        <time>2005-12-11T10:45:57Z</time>
      </trkpt>
      <trkpt lat="45.643794536590576" lon="8.213739395141602">
        <ele>658.640380859375</ele>
        <time>2005-12-11T10:45:59Z</time>
      </trkpt>
      <trkpt lat="45.643794536590576" lon="8.213589191436768">
        <ele>658.159912109375</ele>
        <time>2005-12-11T10:46:01Z</time>
      </trkpt>
      <trkpt lat="45.643837451934814" lon="8.213396072387695">
        <ele>657.198486328125</ele>
        <time>2005-12-11T10:46:04Z</time>
      </trkpt>
      <trkpt lat="45.643837451934814" lon="8.212966918945313">
        <ele>656.7177734375</ele>
        <time>2005-12-11T10:46:12Z</time>
      </trkpt>
      <trkpt lat="45.64368724822998" lon="8.212752342224121">
        <ele>655.27587890625</ele>
        <time>2005-12-11T10:46:17Z</time>
      </trkpt>
      <trkpt lat="45.643236637115479" lon="8.212387561798096">
        <ele>652.391845703125</ele>
        <time>2005-12-11T10:46:21Z</time>
      </trkpt>
      <trkpt lat="45.643150806427002" lon="8.212151527404785">
        <ele>645.66259765625</ele>
        <time>2005-12-11T10:46:32Z</time>
      </trkpt>
      <trkpt lat="45.643022060394287" lon="8.21204423904419">
        <ele>641.336669921875</ele>
        <time>2005-12-11T10:46:40Z</time>
      </trkpt>
      <trkpt lat="45.642871856689453" lon="8.211765289306641">
        <ele>636.5302734375</ele>
        <time>2005-12-11T10:46:48Z</time>
      </trkpt>
      <trkpt lat="45.642807483673096" lon="8.21129322052002">
        <ele>633.64599609375</ele>
        <time>2005-12-11T10:46:58Z</time>
      </trkpt>
      <trkpt lat="45.642721652984619" lon="8.210971355438232">
        <ele>632.684814453125</ele>
        <time>2005-12-11T10:47:05Z</time>
      </trkpt>
      <trkpt lat="45.642743110656738" lon="8.210864067077637">
        <ele>632.2041015625</ele>
        <time>2005-12-11T10:47:08Z</time>
      </trkpt>
      <trkpt lat="45.6427001953125" lon="8.210649490356445">
        <ele>628.839599609375</ele>
        <time>2005-12-11T10:47:14Z</time>
      </trkpt>
      <trkpt lat="45.642657279968262" lon="8.210413455963135">
        <ele>623.07177734375</ele>
        <time>2005-12-11T10:47:20Z</time>
      </trkpt>
      <trkpt lat="45.642549991607666" lon="8.210220336914063">
        <ele>619.70703125</ele>
        <time>2005-12-11T10:47:25Z</time>
      </trkpt>
      <trkpt lat="45.642421245574951" lon="8.210048675537109">
        <ele>616.822998046875</ele>
        <time>2005-12-11T10:47:30Z</time>
      </trkpt>
      <trkpt lat="45.642399787902832" lon="8.209984302520752">
        <ele>615.86181640625</ele>
        <time>2005-12-11T10:47:31Z</time>
      </trkpt>
      <trkpt lat="45.642356872558594" lon="8.209769725799561">
        <ele>612.0166015625</ele>
        <time>2005-12-11T10:47:37Z</time>
      </trkpt>
      <trkpt lat="45.642292499542236" lon="8.209469318389893">
        <ele>603.84521484375</ele>
        <time>2005-12-11T10:47:47Z</time>
      </trkpt>
      <trkpt lat="45.642185211181641" lon="8.209233283996582">
        <ele>598.557861328125</ele>
        <time>2005-12-11T10:47:57Z</time>
      </trkpt>
      <trkpt lat="45.642056465148926" lon="8.208932876586914">
        <ele>593.75146484375</ele>
        <time>2005-12-11T10:48:08Z</time>
      </trkpt>
      <trkpt lat="45.641992092132568" lon="8.208696842193604">
        <ele>589.90625</ele>
        <time>2005-12-11T10:48:15Z</time>
      </trkpt>
      <trkpt lat="45.641820430755615" lon="8.20854663848877">
        <ele>587.502685546875</ele>
        <time>2005-12-11T10:48:22Z</time>
      </trkpt>
      <trkpt lat="45.641584396362305" lon="8.208589553833008">
        <ele>583.1767578125</ele>
        <time>2005-12-11T10:48:29Z</time>
      </trkpt>
      <trkpt lat="45.641391277313232" lon="8.208761215209961">
        <ele>566.83447265625</ele>
        <time>2005-12-11T10:49:24Z</time>
      </trkpt>
      <trkpt lat="45.641369819641113" lon="8.208718299865723">
        <ele>572.121826171875</ele>
        <time>2005-12-11T10:50:11Z</time>
      </trkpt>
      <trkpt lat="45.641326904296875" lon="8.208761215209961">
        <ele>569.718505859375</ele>
        <time>2005-12-11T10:50:17Z</time>
      </trkpt>
      <trkpt lat="45.641219615936279" lon="8.208868503570557">
        <ele>566.353759765625</ele>
        <time>2005-12-11T10:50:26Z</time>
      </trkpt>
      <trkpt lat="45.64119815826416" lon="8.208868503570557">
        <ele>562.9892578125</ele>
        <time>2005-12-11T10:50:31Z</time>
      </trkpt>
      <trkpt lat="45.641090869903564" lon="8.208847045898438">
        <ele>559.14404296875</ele>
        <time>2005-12-11T10:50:36Z</time>
      </trkpt>
      <trkpt lat="45.640897750854492" lon="8.208997249603272">
        <ele>555.298583984375</ele>
        <time>2005-12-11T10:50:43Z</time>
      </trkpt>
      <trkpt lat="45.640747547149658" lon="8.209319114685059">
        <ele>555.298583984375</ele>
        <time>2005-12-11T10:50:53Z</time>
      </trkpt>
      <trkpt lat="45.640726089477539" lon="8.209362030029297">
        <ele>555.298583984375</ele>
        <time>2005-12-11T10:50:55Z</time>
      </trkpt>
      <trkpt lat="45.640511512756348" lon="8.209469318389893">
        <ele>552.895263671875</ele>
        <time>2005-12-11T10:51:07Z</time>
      </trkpt>
      <trkpt lat="45.640339851379395" lon="8.209619522094727">
        <ele>550.97265625</ele>
        <time>2005-12-11T10:51:14Z</time>
      </trkpt>
      <trkpt lat="45.640318393707275" lon="8.209576606750488">
        <ele>558.182861328125</ele>
        <time>2005-12-11T10:55:30Z</time>
      </trkpt>
      <trkpt lat="45.640232563018799" lon="8.209640979766846">
        <ele>555.779296875</ele>
        <time>2005-12-11T10:55:36Z</time>
      </trkpt>
      <trkpt lat="45.640017986297607" lon="8.209812641143799">
        <ele>552.895263671875</ele>
        <time>2005-12-11T10:55:45Z</time>
      </trkpt>
      <trkpt lat="45.639760494232178" lon="8.210091590881348">
        <ele>549.53076171875</ele>
        <time>2005-12-11T10:55:53Z</time>
      </trkpt>
      <trkpt lat="45.639717578887939" lon="8.210134506225586">
        <ele>549.050048828125</ele>
        <time>2005-12-11T10:55:54Z</time>
      </trkpt>
      <trkpt lat="45.639610290527344" lon="8.210134506225586">
        <ele>545.204833984375</ele>
        <time>2005-12-11T10:55:58Z</time>
      </trkpt>
      <trkpt lat="45.63920259475708" lon="8.21002721786499">
        <ele>541.3594970703125</ele>
        <time>2005-12-11T10:56:11Z</time>
      </trkpt>
      <trkpt lat="45.638837814331055" lon="8.209898471832275">
        <ele>537.9949951171875</ele>
        <time>2005-12-11T10:56:24Z</time>
      </trkpt>
      <trkpt lat="45.638666152954102" lon="8.209855556488037">
        <ele>535.591552734375</ele>
        <time>2005-12-11T10:56:30Z</time>
      </trkpt>
      <trkpt lat="45.638644695281982" lon="8.209984302520752">
        <ele>535.1109619140625</ele>
        <time>2005-12-11T10:56:33Z</time>
      </trkpt>
      <trkpt lat="45.638558864593506" lon="8.210327625274658">
        <ele>534.63037109375</ele>
        <time>2005-12-11T10:56:38Z</time>
      </trkpt>
      <trkpt lat="45.638494491577148" lon="8.210821151733398">
        <ele>533.1883544921875</ele>
        <time>2005-12-11T10:56:45Z</time>
      </trkpt>
      <trkpt lat="45.638344287872314" lon="8.210756778717041">
        <ele>531.2657470703125</ele>
        <time>2005-12-11T10:56:52Z</time>
      </trkpt>
      <trkpt lat="45.63819408416748" lon="8.210456371307373">
        <ele>528.862548828125</ele>
        <time>2005-12-11T10:57:01Z</time>
      </trkpt>
      <trkpt lat="45.638000965118408" lon="8.210155963897705">
        <ele>527.9010009765625</ele>
        <time>2005-12-11T10:57:09Z</time>
      </trkpt>
      <trkpt lat="45.63746452331543" lon="8.20979118347168">
        <ele>523.5751953125</ele>
        <time>2005-12-11T10:57:23Z</time>
      </trkpt>
      <trkpt lat="45.637335777282715" lon="8.209748268127441">
        <ele>522.1331787109375</ele>
        <time>2005-12-11T10:57:26Z</time>
      </trkpt>
      <trkpt lat="45.637249946594238" lon="8.209898471832275">
        <ele>520.2105712890625</ele>
        <time>2005-12-11T10:57:31Z</time>
      </trkpt>
      <trkpt lat="45.637164115905762" lon="8.210070133209229">
        <ele>519.249267578125</ele>
        <time>2005-12-11T10:57:40Z</time>
      </trkpt>
      <trkpt lat="45.637078285217285" lon="8.210241794586182">
        <ele>518.7685546875</ele>
        <time>2005-12-11T10:57:48Z</time>
      </trkpt>
      <trkpt lat="45.636970996856689" lon="8.210434913635254">
        <ele>517.32666015625</ele>
        <time>2005-12-11T10:57:59Z</time>
      </trkpt>
      <trkpt lat="45.63694953918457" lon="8.210585117340088">
        <ele>516.365234375</ele>
        <time>2005-12-11T10:58:08Z</time>
      </trkpt>
      <trkpt lat="45.63694953918457" lon="8.210756778717041">
        <ele>517.32666015625</ele>
        <time>2005-12-11T10:58:17Z</time>
      </trkpt>
      <trkpt lat="45.636970996856689" lon="8.210885524749756">
        <ele>517.8072509765625</ele>
        <time>2005-12-11T10:58:26Z</time>
      </trkpt>
      <trkpt lat="45.637013912200928" lon="8.211078643798828">
        <ele>519.7298583984375</ele>
        <time>2005-12-11T10:58:38Z</time>
      </trkpt>
      <trkpt lat="45.637035369873047" lon="8.211164474487305">
        <ele>519.249267578125</ele>
        <time>2005-12-11T10:58:44Z</time>
      </trkpt>
      <trkpt lat="45.636992454528809" lon="8.211336135864258">
        <ele>520.6912841796875</ele>
        <time>2005-12-11T10:58:55Z</time>
      </trkpt>
      <trkpt lat="45.636906623840332" lon="8.211464881896973">
        <ele>520.6912841796875</ele>
        <time>2005-12-11T10:59:04Z</time>
      </trkpt>
      <trkpt lat="45.636885166168213" lon="8.211615085601807">
        <ele>521.652587890625</ele>
        <time>2005-12-11T10:59:14Z</time>
      </trkpt>
      <trkpt lat="45.636906623840332" lon="8.211829662322998">
        <ele>522.1331787109375</ele>
        <time>2005-12-11T10:59:25Z</time>
      </trkpt>
      <trkpt lat="45.636928081512451" lon="8.21204423904419">
        <ele>523.0946044921875</ele>
        <time>2005-12-11T10:59:35Z</time>
      </trkpt>
      <trkpt lat="45.636970996856689" lon="8.212237358093262">
        <ele>522.6138916015625</ele>
        <time>2005-12-11T10:59:44Z</time>
      </trkpt>
      <trkpt lat="45.636906623840332" lon="8.212409019470215">
        <ele>523.0946044921875</ele>
        <time>2005-12-11T10:59:53Z</time>
      </trkpt>
      <trkpt lat="45.636842250823975" lon="8.212494850158691">
        <ele>523.5751953125</ele>
        <time>2005-12-11T11:00:01Z</time>
      </trkpt>
      <trkpt lat="45.636820793151855" lon="8.212645053863525">
        <ele>525.0172119140625</ele>
        <time>2005-12-11T11:00:09Z</time>
      </trkpt>
      <trkpt lat="45.636820793151855" lon="8.212838172912598">
        <ele>526.4591064453125</ele>
        <time>2005-12-11T11:00:20Z</time>
      </trkpt>
      <trkpt lat="45.636842250823975" lon="8.212881088256836">
        <ele>526.4591064453125</ele>
        <time>2005-12-11T11:00:23Z</time>
      </trkpt>
      <trkpt lat="45.636906623840332" lon="8.213074207305908">
        <ele>529.3431396484375</ele>
        <time>2005-12-11T11:00:37Z</time>
      </trkpt>
      <trkpt lat="45.636906623840332" lon="8.213138580322266">
        <ele>530.78515625</ele>
        <time>2005-12-11T11:00:42Z</time>
      </trkpt>
      <trkpt lat="45.636906623840332" lon="8.213202953338623">
        <ele>531.2657470703125</ele>
        <time>2005-12-11T11:00:47Z</time>
      </trkpt>
      <trkpt lat="45.636928081512451" lon="8.213396072387695">
        <ele>533.1883544921875</ele>
        <time>2005-12-11T11:00:59Z</time>
      </trkpt>
      <trkpt lat="45.63694953918457" lon="8.213460445404053">
        <ele>534.149658203125</ele>
        <time>2005-12-11T11:01:04Z</time>
      </trkpt>
      <trkpt lat="45.636992454528809" lon="8.213589191436768">
        <ele>536.5531005859375</ele>
        <time>2005-12-11T11:01:15Z</time>
      </trkpt>
      <trkpt lat="45.637013912200928" lon="8.213675022125244">
        <ele>537.03369140625</ele>
        <time>2005-12-11T11:01:21Z</time>
      </trkpt>
      <trkpt lat="45.637056827545166" lon="8.213846683502197">
        <ele>538.4757080078125</ele>
        <time>2005-12-11T11:01:31Z</time>
      </trkpt>
      <trkpt lat="45.637099742889404" lon="8.214061260223389">
        <ele>538.956298828125</ele>
        <time>2005-12-11T11:01:42Z</time>
      </trkpt>
      <trkpt lat="45.637142658233643" lon="8.214297294616699">
        <ele>538.956298828125</ele>
        <time>2005-12-11T11:01:48Z</time>
      </trkpt>
      <trkpt lat="45.637142658233643" lon="8.214490413665772">
        <ele>538.956298828125</ele>
        <time>2005-12-11T11:01:57Z</time>
      </trkpt>
      <trkpt lat="45.637035369873047" lon="8.214619159698486">
        <ele>539.9176025390625</ele>
        <time>2005-12-11T11:02:07Z</time>
      </trkpt>
      <trkpt lat="45.636992454528809" lon="8.214704990386963">
        <ele>540.87890625</ele>
        <time>2005-12-11T11:02:15Z</time>
      </trkpt>
      <trkpt lat="45.636970996856689" lon="8.214704990386963">
        <ele>549.050048828125</ele>
        <time>2005-12-11T11:02:59Z</time>
      </trkpt>
      <trkpt lat="45.63694953918457" lon="8.21479082107544">
        <ele>548.0888671875</ele>
        <time>2005-12-11T11:04:40Z</time>
      </trkpt>
      <trkpt lat="45.636906623840332" lon="8.214833736419678">
        <ele>549.53076171875</ele>
        <time>2005-12-11T11:04:46Z</time>
      </trkpt>
      <trkpt lat="45.636863708496094" lon="8.214876651763916">
        <ele>549.53076171875</ele>
        <time>2005-12-11T11:04:56Z</time>
      </trkpt>
      <trkpt lat="45.636842250823975" lon="8.214898109436035">
        <ele>549.53076171875</ele>
        <time>2005-12-11T11:04:59Z</time>
      </trkpt>
      <trkpt lat="45.636820793151855" lon="8.214898109436035">
        <ele>549.53076171875</ele>
        <time>2005-12-11T11:05:03Z</time>
      </trkpt>
      <trkpt lat="45.636734962463379" lon="8.214898109436035">
        <ele>548.5693359375</ele>
        <time>2005-12-11T11:05:08Z</time>
      </trkpt>
      <trkpt lat="45.636670589447021" lon="8.214898109436035">
        <ele>548.5693359375</ele>
        <time>2005-12-11T11:05:16Z</time>
      </trkpt>
      <trkpt lat="45.636627674102783" lon="8.214919567108154">
        <ele>549.050048828125</ele>
        <time>2005-12-11T11:05:24Z</time>
      </trkpt>
      <trkpt lat="45.636627674102783" lon="8.214962482452393">
        <ele>549.050048828125</ele>
        <time>2005-12-11T11:05:32Z</time>
      </trkpt>
      <trkpt lat="45.636541843414307" lon="8.214941024780273">
        <ele>548.5693359375</ele>
        <time>2005-12-11T11:05:41Z</time>
      </trkpt>
      <trkpt lat="45.636498928070068" lon="8.214919567108154">
        <ele>546.6468505859375</ele>
        <time>2005-12-11T11:05:50Z</time>
      </trkpt>
      <trkpt lat="45.63645601272583" lon="8.214941024780273">
        <ele>545.204833984375</ele>
        <time>2005-12-11T11:05:55Z</time>
      </trkpt>
      <trkpt lat="45.636434555053711" lon="8.215005397796631">
        <ele>544.24365234375</ele>
        <time>2005-12-11T11:06:00Z</time>
      </trkpt>
      <trkpt lat="45.636413097381592" lon="8.215005397796631">
        <ele>544.24365234375</ele>
        <time>2005-12-11T11:06:02Z</time>
      </trkpt>
      <trkpt lat="45.636305809020996" lon="8.215048313140869">
        <ele>542.3209228515625</ele>
        <time>2005-12-11T11:06:11Z</time>
      </trkpt>
      <trkpt lat="45.63621997833252" lon="8.214962482452393">
        <ele>541.3594970703125</ele>
        <time>2005-12-11T11:06:20Z</time>
      </trkpt>
      <trkpt lat="45.636134147644043" lon="8.214962482452393">
        <ele>540.3983154296875</ele>
        <time>2005-12-11T11:06:27Z</time>
      </trkpt>
      <trkpt lat="45.636134147644043" lon="8.214962482452393">
        <ele>540.3983154296875</ele>
        <time>2005-12-11T11:06:28Z</time>
      </trkpt>
      <trkpt lat="45.636026859283447" lon="8.214898109436035">
        <ele>540.87890625</ele>
        <time>2005-12-11T11:06:34Z</time>
      </trkpt>
      <trkpt lat="45.63596248626709" lon="8.214919567108154">
        <ele>539.9176025390625</ele>
        <time>2005-12-11T11:06:40Z</time>
      </trkpt>
      <trkpt lat="45.63596248626709" lon="8.214898109436035">
        <ele>539.4368896484375</ele>
        <time>2005-12-11T11:06:42Z</time>
      </trkpt>
      <trkpt lat="45.635919570922852" lon="8.214876651763916">
        <ele>537.5142822265625</ele>
        <time>2005-12-11T11:06:48Z</time>
      </trkpt>
      <trkpt lat="45.635833740234375" lon="8.214962482452393">
        <ele>536.5531005859375</ele>
        <time>2005-12-11T11:06:53Z</time>
      </trkpt>
      <trkpt lat="45.635790824890137" lon="8.214983940124512">
        <ele>536.0723876953125</ele>
        <time>2005-12-11T11:06:58Z</time>
      </trkpt>
      <trkpt lat="45.635747909545898" lon="8.21502685546875">
        <ele>534.63037109375</ele>
        <time>2005-12-11T11:07:06Z</time>
      </trkpt>
      <trkpt lat="45.635726451873779" lon="8.21502685546875">
        <ele>535.1109619140625</ele>
        <time>2005-12-11T11:07:13Z</time>
      </trkpt>
      <trkpt lat="45.635662078857422" lon="8.21502685546875">
        <ele>535.1109619140625</ele>
        <time>2005-12-11T11:09:17Z</time>
      </trkpt>
      <trkpt lat="45.635554790496826" lon="8.21502685546875">
        <ele>536.0723876953125</ele>
        <time>2005-12-11T11:09:27Z</time>
      </trkpt>
      <trkpt lat="45.635533332824707" lon="8.215069770812988">
        <ele>535.1109619140625</ele>
        <time>2005-12-11T11:09:33Z</time>
      </trkpt>
      <trkpt lat="45.635554790496826" lon="8.215112686157227">
        <ele>535.591552734375</ele>
        <time>2005-12-11T11:09:43Z</time>
      </trkpt>
      <trkpt lat="45.635554790496826" lon="8.215134143829346">
        <ele>535.591552734375</ele>
        <time>2005-12-11T11:09:50Z</time>
      </trkpt>
      <trkpt lat="45.635533332824707" lon="8.215177059173584">
        <ele>535.591552734375</ele>
        <time>2005-12-11T11:10:09Z</time>
      </trkpt>
      <trkpt lat="45.635490417480469" lon="8.215177059173584">
        <ele>536.0723876953125</ele>
        <time>2005-12-11T11:10:15Z</time>
      </trkpt>
      <trkpt lat="45.63544750213623" lon="8.215134143829346">
        <ele>536.5531005859375</ele>
        <time>2005-12-11T11:10:23Z</time>
      </trkpt>
      <trkpt lat="45.635404586791992" lon="8.215155601501465">
        <ele>537.9949951171875</ele>
        <time>2005-12-11T11:10:32Z</time>
      </trkpt>
      <trkpt lat="45.635361671447754" lon="8.215219974517822">
        <ele>539.9176025390625</ele>
        <time>2005-12-11T11:10:42Z</time>
      </trkpt>
      <trkpt lat="45.635318756103516" lon="8.21528434753418">
        <ele>540.3983154296875</ele>
        <time>2005-12-11T11:10:50Z</time>
      </trkpt>
      <trkpt lat="45.635254383087158" lon="8.215327262878418">
        <ele>541.8402099609375</ele>
        <time>2005-12-11T11:11:01Z</time>
      </trkpt>
      <trkpt lat="45.635232925415039" lon="8.215370178222656">
        <ele>542.3209228515625</ele>
        <time>2005-12-11T11:11:08Z</time>
      </trkpt>
      <trkpt lat="45.635168552398682" lon="8.215413093566895">
        <ele>543.2821044921875</ele>
        <time>2005-12-11T11:11:15Z</time>
      </trkpt>
      <trkpt lat="45.635104179382324" lon="8.21552038192749">
        <ele>545.685546875</ele>
        <time>2005-12-11T11:11:25Z</time>
      </trkpt>
      <trkpt lat="45.635082721710205" lon="8.215649127960205">
        <ele>545.685546875</ele>
        <time>2005-12-11T11:11:29Z</time>
      </trkpt>
      <trkpt lat="45.635039806365967" lon="8.215799331665039">
        <ele>546.166259765625</ele>
        <time>2005-12-11T11:11:35Z</time>
      </trkpt>
      <trkpt lat="45.635039806365967" lon="8.215970993041992">
        <ele>547.12744140625</ele>
        <time>2005-12-11T11:11:43Z</time>
      </trkpt>
      <trkpt lat="45.635061264038086" lon="8.215992450714111">
        <ele>546.166259765625</ele>
        <time>2005-12-11T11:12:53Z</time>
      </trkpt>
      <trkpt lat="45.635039806365967" lon="8.216142654418945">
        <ele>545.204833984375</ele>
        <time>2005-12-11T11:12:58Z</time>
      </trkpt>
      <trkpt lat="45.635018348693848" lon="8.216164112091065">
        <ele>545.204833984375</ele>
        <time>2005-12-11T11:13:00Z</time>
      </trkpt>
      <trkpt lat="45.634932518005371" lon="8.216185569763184">
        <ele>548.0888671875</ele>
        <time>2005-12-11T11:13:10Z</time>
      </trkpt>
      <trkpt lat="45.634889602661133" lon="8.216164112091065">
        <ele>550.011474609375</ele>
        <time>2005-12-11T11:13:16Z</time>
      </trkpt>
      <trkpt lat="45.634825229644775" lon="8.216207027435303">
        <ele>550.4921875</ele>
        <time>2005-12-11T11:13:23Z</time>
      </trkpt>
      <trkpt lat="45.634739398956299" lon="8.216228485107422">
        <ele>552.41455078125</ele>
        <time>2005-12-11T11:13:32Z</time>
      </trkpt>
      <trkpt lat="45.634675025939941" lon="8.21627140045166">
        <ele>553.3759765625</ele>
        <time>2005-12-11T11:13:40Z</time>
      </trkpt>
      <trkpt lat="45.634610652923584" lon="8.216292858123779">
        <ele>555.298583984375</ele>
        <time>2005-12-11T11:13:49Z</time>
      </trkpt>
      <trkpt lat="45.634524822235107" lon="8.216400146484375">
        <ele>556.74072265625</ele>
        <time>2005-12-11T11:14:01Z</time>
      </trkpt>
      <trkpt lat="45.63446044921875" lon="8.216485977172852">
        <ele>557.7021484375</ele>
        <time>2005-12-11T11:14:12Z</time>
      </trkpt>
      <trkpt lat="45.634374618530273" lon="8.21652889251709">
        <ele>558.182861328125</ele>
        <time>2005-12-11T11:14:20Z</time>
      </trkpt>
      <trkpt lat="45.634310245513916" lon="8.216593265533447">
        <ele>558.182861328125</ele>
        <time>2005-12-11T11:14:25Z</time>
      </trkpt>
      <trkpt lat="45.634245872497559" lon="8.216700553894043">
        <ele>557.7021484375</ele>
        <time>2005-12-11T11:14:28Z</time>
      </trkpt>
      <trkpt lat="45.634224414825439" lon="8.216829299926758">
        <ele>560.105224609375</ele>
        <time>2005-12-11T11:14:39Z</time>
      </trkpt>
      <trkpt lat="45.634160041809082" lon="8.216958045959473">
        <ele>560.5859375</ele>
        <time>2005-12-11T11:14:50Z</time>
      </trkpt>
      <trkpt lat="45.634095668792725" lon="8.21702241897583">
        <ele>562.028076171875</ele>
        <time>2005-12-11T11:14:58Z</time>
      </trkpt>
      <trkpt lat="45.634052753448486" lon="8.217129707336426">
        <ele>563.469970703125</ele>
        <time>2005-12-11T11:15:10Z</time>
      </trkpt>
      <trkpt lat="45.634052753448486" lon="8.217215538024902">
        <ele>564.911865234375</ele>
        <time>2005-12-11T11:15:20Z</time>
      </trkpt>
      <trkpt lat="45.634009838104248" lon="8.21727991104126">
        <ele>566.83447265625</ele>
        <time>2005-12-11T11:15:30Z</time>
      </trkpt>
      <trkpt lat="45.63396692276001" lon="8.217365741729736">
        <ele>570.6796875</ele>
        <time>2005-12-11T11:15:42Z</time>
      </trkpt>
      <trkpt lat="45.63396692276001" lon="8.217451572418213">
        <ele>572.121826171875</ele>
        <time>2005-12-11T11:15:52Z</time>
      </trkpt>
      <trkpt lat="45.63396692276001" lon="8.217473030090332">
        <ele>572.121826171875</ele>
        <time>2005-12-11T11:16:02Z</time>
      </trkpt>
      <trkpt lat="45.63396692276001" lon="8.217473030090332">
        <ele>572.121826171875</ele>
        <time>2005-12-11T11:16:09Z</time>
      </trkpt>
      <trkpt lat="45.633988380432129" lon="8.217666149139404">
        <ele>573.083251953125</ele>
        <time>2005-12-11T11:16:18Z</time>
      </trkpt>
      <trkpt lat="45.633988380432129" lon="8.217730522155762">
        <ele>573.083251953125</ele>
        <time>2005-12-11T11:16:20Z</time>
      </trkpt>
      <trkpt lat="45.634031295776367" lon="8.217902183532715">
        <ele>571.640869140625</ele>
        <time>2005-12-11T11:16:26Z</time>
      </trkpt>
      <trkpt lat="45.634052753448486" lon="8.218116760253906">
        <ele>571.160400390625</ele>
        <time>2005-12-11T11:16:32Z</time>
      </trkpt>
      <trkpt lat="45.634074211120605" lon="8.218288421630859">
        <ele>571.160400390625</ele>
        <time>2005-12-11T11:16:39Z</time>
      </trkpt>
      <trkpt lat="45.634031295776367" lon="8.218545913696289">
        <ele>570.198974609375</ele>
        <time>2005-12-11T11:16:48Z</time>
      </trkpt>
      <trkpt lat="45.633945465087891" lon="8.218867778778076">
        <ele>570.198974609375</ele>
        <time>2005-12-11T11:16:58Z</time>
      </trkpt>
      <trkpt lat="45.633924007415771" lon="8.218996524810791">
        <ele>572.6025390625</ele>
        <time>2005-12-11T11:17:08Z</time>
      </trkpt>
      <trkpt lat="45.633945465087891" lon="8.219125270843506">
        <ele>574.525146484375</ele>
        <time>2005-12-11T11:17:21Z</time>
      </trkpt>
      <trkpt lat="45.633945465087891" lon="8.219232559204102">
        <ele>576.928466796875</ele>
        <time>2005-12-11T11:17:30Z</time>
      </trkpt>
      <trkpt lat="45.633924007415771" lon="8.219254016876221">
        <ele>577.8896484375</ele>
        <time>2005-12-11T11:17:33Z</time>
      </trkpt>
      <trkpt lat="45.633881092071533" lon="8.219382762908936">
        <ele>579.33154296875</ele>
        <time>2005-12-11T11:17:45Z</time>
      </trkpt>
      <trkpt lat="45.633859634399414" lon="8.219425678253174">
        <ele>579.33154296875</ele>
        <time>2005-12-11T11:17:49Z</time>
      </trkpt>
      <trkpt lat="45.63370943069458" lon="8.21953296661377">
        <ele>578.370361328125</ele>
        <time>2005-12-11T11:17:55Z</time>
      </trkpt>
      <trkpt lat="45.63370943069458" lon="8.21953296661377">
        <ele>578.370361328125</ele>
        <time>2005-12-11T11:18:03Z</time>
      </trkpt>
      <trkpt lat="45.633666515350342" lon="8.219597339630127">
        <ele>576.44775390625</ele>
        <time>2005-12-11T11:18:11Z</time>
      </trkpt>
      <trkpt lat="45.633645057678223" lon="8.219597339630127">
        <ele>576.44775390625</ele>
        <time>2005-12-11T11:18:12Z</time>
      </trkpt>
      <trkpt lat="45.633623600006104" lon="8.219726085662842">
        <ele>575.486328125</ele>
        <time>2005-12-11T11:18:17Z</time>
      </trkpt>
      <trkpt lat="45.63347339630127" lon="8.220090866088867">
        <ele>572.6025390625</ele>
        <time>2005-12-11T11:18:27Z</time>
      </trkpt>
      <trkpt lat="45.633301734924316" lon="8.220498561859131">
        <ele>573.083251953125</ele>
        <time>2005-12-11T11:18:37Z</time>
      </trkpt>
      <trkpt lat="45.633172988891602" lon="8.220691680908203">
        <ele>572.121826171875</ele>
        <time>2005-12-11T11:18:47Z</time>
      </trkpt>
      <trkpt lat="45.633044242858887" lon="8.220841884613037">
        <ele>570.6796875</ele>
        <time>2005-12-11T11:18:56Z</time>
      </trkpt>
      <trkpt lat="45.632936954498291" lon="8.220992088317871">
        <ele>569.718505859375</ele>
        <time>2005-12-11T11:19:01Z</time>
      </trkpt>
      <trkpt lat="45.632915496826172" lon="8.221056461334229">
        <ele>569.23779296875</ele>
        <time>2005-12-11T11:19:07Z</time>
      </trkpt>
      <trkpt lat="45.632872581481934" lon="8.221185207366943">
        <ele>568.757080078125</ele>
        <time>2005-12-11T11:19:20Z</time>
      </trkpt>
      <trkpt lat="45.632851123809814" lon="8.221206665039063">
        <ele>568.757080078125</ele>
        <time>2005-12-11T11:19:22Z</time>
      </trkpt>
      <trkpt lat="45.632765293121338" lon="8.221228122711182">
        <ele>568.757080078125</ele>
        <time>2005-12-11T11:19:26Z</time>
      </trkpt>
      <trkpt lat="45.632636547088623" lon="8.221206665039063">
        <ele>568.2763671875</ele>
        <time>2005-12-11T11:19:30Z</time>
      </trkpt>
      <trkpt lat="45.632593631744385" lon="8.221228122711182">
        <ele>568.2763671875</ele>
        <time>2005-12-11T11:19:34Z</time>
      </trkpt>
      <trkpt lat="45.632507801055908" lon="8.221249580383301">
        <ele>567.795654296875</ele>
        <time>2005-12-11T11:19:43Z</time>
      </trkpt>
      <trkpt lat="45.632421970367432" lon="8.221249580383301">
        <ele>569.23779296875</ele>
        <time>2005-12-11T11:19:53Z</time>
      </trkpt>
      <trkpt lat="45.632314682006836" lon="8.221249580383301">
        <ele>570.6796875</ele>
        <time>2005-12-11T11:20:05Z</time>
      </trkpt>
      <trkpt lat="45.632293224334717" lon="8.221249580383301">
        <ele>569.23779296875</ele>
        <time>2005-12-11T11:20:16Z</time>
      </trkpt>
      <trkpt lat="45.632271766662598" lon="8.22127103805542">
        <ele>569.718505859375</ele>
        <time>2005-12-11T11:20:22Z</time>
      </trkpt>
      <trkpt lat="45.632057189941406" lon="8.221185207366943">
        <ele>569.718505859375</ele>
        <time>2005-12-11T11:20:32Z</time>
      </trkpt>
      <trkpt lat="45.631670951843262" lon="8.221099376678467">
        <ele>567.795654296875</ele>
        <time>2005-12-11T11:20:46Z</time>
      </trkpt>
      <trkpt lat="45.631477832794189" lon="8.221163749694824">
        <ele>567.795654296875</ele>
        <time>2005-12-11T11:20:53Z</time>
      </trkpt>
      <trkpt lat="45.631284713745117" lon="8.221335411071777">
        <ele>567.795654296875</ele>
        <time>2005-12-11T11:21:01Z</time>
      </trkpt>
      <trkpt lat="45.631113052368164" lon="8.221442699432373">
        <ele>567.795654296875</ele>
        <time>2005-12-11T11:21:05Z</time>
      </trkpt>
      <trkpt lat="45.631027221679688" lon="8.221464157104492">
        <ele>567.795654296875</ele>
        <time>2005-12-11T11:21:07Z</time>
      </trkpt>
      <trkpt lat="45.630919933319092" lon="8.221421241760254">
        <ele>567.315185546875</ele>
        <time>2005-12-11T11:21:10Z</time>
      </trkpt>
      <trkpt lat="45.63072681427002" lon="8.221399784088135">
        <ele>566.353759765625</ele>
        <time>2005-12-11T11:21:15Z</time>
      </trkpt>
      <trkpt lat="45.63046932220459" lon="8.221313953399658">
        <ele>565.392578125</ele>
        <time>2005-12-11T11:21:22Z</time>
      </trkpt>
      <trkpt lat="45.630276203155518" lon="8.221335411071777">
        <ele>563.950439453125</ele>
        <time>2005-12-11T11:21:28Z</time>
      </trkpt>
      <trkpt lat="45.630125999450684" lon="8.22127103805542">
        <ele>561.54736328125</ele>
        <time>2005-12-11T11:21:34Z</time>
      </trkpt>
      <trkpt lat="45.629932880401611" lon="8.221185207366943">
        <ele>560.5859375</ele>
        <time>2005-12-11T11:21:40Z</time>
      </trkpt>
      <trkpt lat="45.629804134368896" lon="8.221185207366943">
        <ele>557.221435546875</ele>
        <time>2005-12-11T11:21:46Z</time>
      </trkpt>
      <trkpt lat="45.629761219024658" lon="8.221185207366943">
        <ele>555.779296875</ele>
        <time>2005-12-11T11:21:48Z</time>
      </trkpt>
      <trkpt lat="45.629632472991943" lon="8.221142292022705">
        <ele>553.3759765625</ele>
        <time>2005-12-11T11:21:52Z</time>
      </trkpt>
      <trkpt lat="45.629525184631348" lon="8.221120834350586">
        <ele>552.41455078125</ele>
        <time>2005-12-11T11:21:56Z</time>
      </trkpt>
      <trkpt lat="45.629417896270752" lon="8.221056461334229">
        <ele>551.453369140625</ele>
        <time>2005-12-11T11:22:00Z</time>
      </trkpt>
      <trkpt lat="45.629374980926514" lon="8.221035003662109">
        <ele>550.97265625</ele>
        <time>2005-12-11T11:22:01Z</time>
      </trkpt>
      <trkpt lat="45.629181861877441" lon="8.221056461334229">
        <ele>550.011474609375</ele>
        <time>2005-12-11T11:22:06Z</time>
      </trkpt>
      <trkpt lat="45.629074573516846" lon="8.22101354598999">
        <ele>549.050048828125</ele>
        <time>2005-12-11T11:22:10Z</time>
      </trkpt>
      <trkpt lat="45.62896728515625" lon="8.220863342285156">
        <ele>541.8402099609375</ele>
        <time>2005-12-11T11:22:15Z</time>
      </trkpt>
      <trkpt lat="45.628945827484131" lon="8.220820426940918">
        <ele>540.87890625</ele>
        <time>2005-12-11T11:22:17Z</time>
      </trkpt>
      <trkpt lat="45.628774166107178" lon="8.220670223236084">
        <ele>537.03369140625</ele>
        <time>2005-12-11T11:22:23Z</time>
      </trkpt>
      <trkpt lat="45.628645420074463" lon="8.220498561859131">
        <ele>535.1109619140625</ele>
        <time>2005-12-11T11:22:28Z</time>
      </trkpt>
      <trkpt lat="45.628495216369629" lon="8.220412731170654">
        <ele>533.6689453125</ele>
        <time>2005-12-11T11:22:33Z</time>
      </trkpt>
      <trkpt lat="45.628495216369629" lon="8.220412731170654">
        <ele>532.22705078125</ele>
        <time>2005-12-11T11:22:40Z</time>
      </trkpt>
      <trkpt lat="45.628516674041748" lon="8.220412731170654">
        <ele>534.63037109375</ele>
        <time>2005-12-11T11:22:55Z</time>
      </trkpt>
      <trkpt lat="45.628495216369629" lon="8.220369815826416">
        <ele>533.6689453125</ele>
        <time>2005-12-11T11:23:25Z</time>
      </trkpt>
      <trkpt lat="45.628345012664795" lon="8.220412731170654">
        <ele>533.1883544921875</ele>
        <time>2005-12-11T11:23:35Z</time>
      </trkpt>
      <trkpt lat="45.628151893615723" lon="8.22052001953125">
        <ele>532.707763671875</ele>
        <time>2005-12-11T11:23:44Z</time>
      </trkpt>
      <trkpt lat="45.62795877456665" lon="8.220584392547607">
        <ele>530.78515625</ele>
        <time>2005-12-11T11:23:51Z</time>
      </trkpt>
      <trkpt lat="45.627787113189697" lon="8.22052001953125">
        <ele>529.82373046875</ele>
        <time>2005-12-11T11:23:56Z</time>
      </trkpt>
      <trkpt lat="45.627636909484863" lon="8.220305442810059">
        <ele>528.862548828125</ele>
        <time>2005-12-11T11:24:02Z</time>
      </trkpt>
      <trkpt lat="45.627486705780029" lon="8.220198154449463">
        <ele>528.3818359375</ele>
        <time>2005-12-11T11:24:07Z</time>
      </trkpt>
      <trkpt lat="45.627379417419434" lon="8.220112323760986">
        <ele>526.9398193359375</ele>
        <time>2005-12-11T11:24:11Z</time>
      </trkpt>
      <trkpt lat="45.627336502075195" lon="8.220005035400391">
        <ele>528.3818359375</ele>
        <time>2005-12-11T11:24:19Z</time>
      </trkpt>
      <trkpt lat="45.627315044403076" lon="8.219940662384033">
        <ele>527.9010009765625</ele>
        <time>2005-12-11T11:24:28Z</time>
      </trkpt>
      <trkpt lat="45.627272129058838" lon="8.219854831695557">
        <ele>528.3818359375</ele>
        <time>2005-12-11T11:24:39Z</time>
      </trkpt>
      <trkpt lat="45.627250671386719" lon="8.219790458679199">
        <ele>528.862548828125</ele>
        <time>2005-12-11T11:24:47Z</time>
      </trkpt>
      <trkpt lat="45.6272292137146" lon="8.219726085662842">
        <ele>529.3431396484375</ele>
        <time>2005-12-11T11:24:52Z</time>
      </trkpt>
      <trkpt lat="45.627250671386719" lon="8.219597339630127">
        <ele>529.3431396484375</ele>
        <time>2005-12-11T11:25:03Z</time>
      </trkpt>
      <trkpt lat="45.6272292137146" lon="8.21951150894165">
        <ele>531.2657470703125</ele>
        <time>2005-12-11T11:25:12Z</time>
      </trkpt>
      <trkpt lat="45.627164840698242" lon="8.219554424285889">
        <ele>533.1883544921875</ele>
        <time>2005-12-11T11:25:20Z</time>
      </trkpt>
      <trkpt lat="45.627121925354004" lon="8.21953296661377">
        <ele>533.1883544921875</ele>
        <time>2005-12-11T11:25:25Z</time>
      </trkpt>
      <trkpt lat="45.627036094665527" lon="8.21951150894165">
        <ele>535.591552734375</ele>
        <time>2005-12-11T11:25:35Z</time>
      </trkpt>
      <trkpt lat="45.626993179321289" lon="8.219468593597412">
        <ele>537.03369140625</ele>
        <time>2005-12-11T11:25:45Z</time>
      </trkpt>
      <trkpt lat="45.626993179321289" lon="8.219404220581055">
        <ele>538.956298828125</ele>
        <time>2005-12-11T11:25:53Z</time>
      </trkpt>
      <trkpt lat="45.626928806304932" lon="8.219404220581055">
        <ele>540.3983154296875</ele>
        <time>2005-12-11T11:26:04Z</time>
      </trkpt>
      <trkpt lat="45.626864433288574" lon="8.219382762908936">
        <ele>541.8402099609375</ele>
        <time>2005-12-11T11:26:12Z</time>
      </trkpt>
      <trkpt lat="45.626821517944336" lon="8.219318389892578">
        <ele>543.7628173828125</ele>
        <time>2005-12-11T11:26:23Z</time>
      </trkpt>
      <trkpt lat="45.626778602600098" lon="8.219296932220459">
        <ele>545.685546875</ele>
        <time>2005-12-11T11:26:32Z</time>
      </trkpt>
      <trkpt lat="45.626757144927979" lon="8.219296932220459">
        <ele>546.166259765625</ele>
        <time>2005-12-11T11:26:40Z</time>
      </trkpt>
      <trkpt lat="45.626757144927979" lon="8.219296932220459">
        <ele>546.166259765625</ele>
        <time>2005-12-11T11:27:00Z</time>
      </trkpt>
      <trkpt lat="45.62671422958374" lon="8.219296932220459">
        <ele>545.204833984375</ele>
        <time>2005-12-11T11:27:09Z</time>
      </trkpt>
      <trkpt lat="45.626671314239502" lon="8.219339847564697">
        <ele>544.24365234375</ele>
        <time>2005-12-11T11:27:18Z</time>
      </trkpt>
      <trkpt lat="45.626649856567383" lon="8.219318389892578">
        <ele>543.2821044921875</ele>
        <time>2005-12-11T11:27:22Z</time>
      </trkpt>
      <trkpt lat="45.626649856567383" lon="8.219296932220459">
        <ele>542.3209228515625</ele>
        <time>2005-12-11T11:27:24Z</time>
      </trkpt>
      <trkpt lat="45.626606941223145" lon="8.21927547454834">
        <ele>541.8402099609375</ele>
        <time>2005-12-11T11:27:28Z</time>
      </trkpt>
      <trkpt lat="45.626606941223145" lon="8.219296932220459">
        <ele>540.87890625</ele>
        <time>2005-12-11T11:27:36Z</time>
      </trkpt>
      <trkpt lat="45.626585483551025" lon="8.219339847564697">
        <ele>541.8402099609375</ele>
        <time>2005-12-11T11:29:05Z</time>
      </trkpt>
      <trkpt lat="45.626499652862549" lon="8.219339847564697">
        <ele>541.8402099609375</ele>
        <time>2005-12-11T11:29:11Z</time>
      </trkpt>
      <trkpt lat="45.626435279846191" lon="8.219382762908936">
        <ele>541.3594970703125</ele>
        <time>2005-12-11T11:29:17Z</time>
      </trkpt>
      <trkpt lat="45.626413822174072" lon="8.219361305236816">
        <ele>540.3983154296875</ele>
        <time>2005-12-11T11:29:23Z</time>
      </trkpt>
      <trkpt lat="45.626392364501953" lon="8.219339847564697">
        <ele>540.3983154296875</ele>
        <time>2005-12-11T11:29:25Z</time>
      </trkpt>
      <trkpt lat="45.626349449157715" lon="8.219339847564697">
        <ele>538.956298828125</ele>
        <time>2005-12-11T11:29:30Z</time>
      </trkpt>
      <trkpt lat="45.626306533813477" lon="8.219318389892578">
        <ele>538.4757080078125</ele>
        <time>2005-12-11T11:29:37Z</time>
      </trkpt>
      <trkpt lat="45.626285076141357" lon="8.219339847564697">
        <ele>537.9949951171875</ele>
        <time>2005-12-11T11:29:39Z</time>
      </trkpt>
      <trkpt lat="45.626220703125" lon="8.219382762908936">
        <ele>537.5142822265625</ele>
        <time>2005-12-11T11:29:45Z</time>
      </trkpt>
      <trkpt lat="45.626113414764404" lon="8.219468593597412">
        <ele>534.149658203125</ele>
        <time>2005-12-11T11:29:53Z</time>
      </trkpt>
      <trkpt lat="45.626049041748047" lon="8.219597339630127">
        <ele>531.746337890625</ele>
        <time>2005-12-11T11:30:00Z</time>
      </trkpt>
      <trkpt lat="45.626027584075928" lon="8.219597339630127">
        <ele>530.78515625</ele>
        <time>2005-12-11T11:30:04Z</time>
      </trkpt>
      <trkpt lat="45.626006126403809" lon="8.219661712646484">
        <ele>529.3431396484375</ele>
        <time>2005-12-11T11:30:09Z</time>
      </trkpt>
      <trkpt lat="45.626006126403809" lon="8.219726085662842">
        <ele>528.862548828125</ele>
        <time>2005-12-11T11:30:12Z</time>
      </trkpt>
      <trkpt lat="45.625984668731689" lon="8.21976900100708">
        <ele>527.9010009765625</ele>
        <time>2005-12-11T11:30:19Z</time>
      </trkpt>
      <trkpt lat="45.62596321105957" lon="8.219876289367676">
        <ele>525.0172119140625</ele>
        <time>2005-12-11T11:30:28Z</time>
      </trkpt>
      <trkpt lat="45.62596321105957" lon="8.219897747039795">
        <ele>524.0557861328125</ele>
        <time>2005-12-11T11:30:31Z</time>
      </trkpt>
      <trkpt lat="45.625898838043213" lon="8.22002649307251">
        <ele>521.652587890625</ele>
        <time>2005-12-11T11:30:41Z</time>
      </trkpt>
      <trkpt lat="45.625898838043213" lon="8.220047950744629">
        <ele>521.1719970703125</ele>
        <time>2005-12-11T11:30:42Z</time>
      </trkpt>
      <trkpt lat="45.625791549682617" lon="8.220176696777344">
        <ele>518.7685546875</ele>
        <time>2005-12-11T11:30:53Z</time>
      </trkpt>
      <trkpt lat="45.625770092010498" lon="8.220198154449463">
        <ele>516.845947265625</ele>
        <time>2005-12-11T11:31:00Z</time>
      </trkpt>
      <trkpt lat="45.62572717666626" lon="8.220241069793701">
        <ele>514.92333984375</ele>
        <time>2005-12-11T11:31:07Z</time>
      </trkpt>
      <trkpt lat="45.625662803649902" lon="8.220348358154297">
        <ele>513.4814453125</ele>
        <time>2005-12-11T11:31:17Z</time>
      </trkpt>
      <trkpt lat="45.625598430633545" lon="8.220369815826416">
        <ele>509.1553955078125</ele>
        <time>2005-12-11T11:31:26Z</time>
      </trkpt>
      <trkpt lat="45.625448226928711" lon="8.220455646514893">
        <ele>507.7135009765625</ele>
        <time>2005-12-11T11:31:36Z</time>
      </trkpt>
      <trkpt lat="45.625426769256592" lon="8.220477104187012">
        <ele>507.7135009765625</ele>
        <time>2005-12-11T11:31:42Z</time>
      </trkpt>
      <trkpt lat="45.625362396240234" lon="8.220498561859131">
        <ele>506.7520751953125</ele>
        <time>2005-12-11T11:31:58Z</time>
      </trkpt>
      <trkpt lat="45.625319480895996" lon="8.220498561859131">
        <ele>506.7520751953125</ele>
        <time>2005-12-11T11:32:00Z</time>
      </trkpt>
      <trkpt lat="45.625298023223877" lon="8.220562934875488">
        <ele>507.2327880859375</ele>
        <time>2005-12-11T11:32:05Z</time>
      </trkpt>
      <trkpt lat="45.625190734863281" lon="8.220584392547607">
        <ele>507.7135009765625</ele>
        <time>2005-12-11T11:32:15Z</time>
      </trkpt>
      <trkpt lat="45.625104904174805" lon="8.220584392547607">
        <ele>507.2327880859375</ele>
        <time>2005-12-11T11:32:23Z</time>
      </trkpt>
      <trkpt lat="45.62497615814209" lon="8.220627307891846">
        <ele>505.7908935546875</ele>
        <time>2005-12-11T11:32:28Z</time>
      </trkpt>
      <trkpt lat="45.624783039093018" lon="8.220627307891846">
        <ele>504.8294677734375</ele>
        <time>2005-12-11T11:32:32Z</time>
      </trkpt>
      <trkpt lat="45.624697208404541" lon="8.220605850219727">
        <ele>504.8294677734375</ele>
        <time>2005-12-11T11:32:34Z</time>
      </trkpt>
      <trkpt lat="45.624632835388184" lon="8.22077751159668">
        <ele>502.90673828125</ele>
        <time>2005-12-11T11:32:40Z</time>
      </trkpt>
      <trkpt lat="45.624568462371826" lon="8.220841884613037">
        <ele>500.5035400390625</ele>
        <time>2005-12-11T11:32:46Z</time>
      </trkpt>
      <trkpt lat="45.624504089355469" lon="8.220841884613037">
        <ele>499.0615234375</ele>
        <time>2005-12-11T11:32:53Z</time>
      </trkpt>
      <trkpt lat="45.62448263168335" lon="8.220863342285156">
        <ele>498.100341796875</ele>
        <time>2005-12-11T11:33:01Z</time>
      </trkpt>
      <trkpt lat="45.62446117401123" lon="8.220863342285156">
        <ele>498.5809326171875</ele>
        <time>2005-12-11T11:33:12Z</time>
      </trkpt>
      <trkpt lat="45.62446117401123" lon="8.220863342285156">
        <ele>498.5809326171875</ele>
        <time>2005-12-11T11:33:13Z</time>
      </trkpt>
      <trkpt lat="45.624375343322754" lon="8.220884799957275">
        <ele>498.5809326171875</ele>
        <time>2005-12-11T11:33:19Z</time>
      </trkpt>
      <trkpt lat="45.624203681945801" lon="8.220906257629395">
        <ele>496.6583251953125</ele>
        <time>2005-12-11T11:33:24Z</time>
      </trkpt>
      <trkpt lat="45.624160766601563" lon="8.220927715301514">
        <ele>496.177734375</ele>
        <time>2005-12-11T11:33:25Z</time>
      </trkpt>
      <trkpt lat="45.624010562896729" lon="8.220841884613037">
        <ele>493.7742919921875</ele>
        <time>2005-12-11T11:33:31Z</time>
      </trkpt>
      <trkpt lat="45.623817443847656" lon="8.220648765563965">
        <ele>492.81298828125</ele>
        <time>2005-12-11T11:33:38Z</time>
      </trkpt>
      <trkpt lat="45.623753070831299" lon="8.220584392547607">
        <ele>491.8516845703125</ele>
        <time>2005-12-11T11:33:40Z</time>
      </trkpt>
      <trkpt lat="45.623688697814941" lon="8.220605850219727">
        <ele>489.9290771484375</ele>
        <time>2005-12-11T11:33:44Z</time>
      </trkpt>
      <trkpt lat="45.623602867126465" lon="8.220562934875488">
        <ele>487.0450439453125</ele>
        <time>2005-12-11T11:33:48Z</time>
      </trkpt>
      <trkpt lat="45.623409748077393" lon="8.220541477203369">
        <ele>483.680419921875</ele>
        <time>2005-12-11T11:33:56Z</time>
      </trkpt>
      <trkpt lat="45.623281002044678" lon="8.220562934875488">
        <ele>481.2772216796875</ele>
        <time>2005-12-11T11:34:04Z</time>
      </trkpt>
      <trkpt lat="45.623259544372559" lon="8.220562934875488">
        <ele>480.796630859375</ele>
        <time>2005-12-11T11:34:09Z</time>
      </trkpt>
      <trkpt lat="45.623238086700439" lon="8.220562934875488">
        <ele>480.31591796875</ele>
        <time>2005-12-11T11:34:10Z</time>
      </trkpt>
      <trkpt lat="45.623130798339844" lon="8.220562934875488">
        <ele>477.9124755859375</ele>
        <time>2005-12-11T11:34:18Z</time>
      </trkpt>
      <trkpt lat="45.623087882995605" lon="8.220605850219727">
        <ele>475.9898681640625</ele>
        <time>2005-12-11T11:34:26Z</time>
      </trkpt>
      <trkpt lat="45.623087882995605" lon="8.220627307891846">
        <ele>475.50927734375</ele>
        <time>2005-12-11T11:34:30Z</time>
      </trkpt>
      <trkpt lat="45.623023509979248" lon="8.220734596252441">
        <ele>472.1446533203125</ele>
        <time>2005-12-11T11:34:40Z</time>
      </trkpt>
      <trkpt lat="45.622894763946533" lon="8.220798969268799">
        <ele>468.780029296875</ele>
        <time>2005-12-11T11:34:50Z</time>
      </trkpt>
      <trkpt lat="45.622851848602295" lon="8.220820426940918">
        <ele>466.376708984375</ele>
        <time>2005-12-11T11:34:58Z</time>
      </trkpt>
      <trkpt lat="45.622851848602295" lon="8.220841884613037">
        <ele>465.8961181640625</ele>
        <time>2005-12-11T11:35:05Z</time>
      </trkpt>
      <trkpt lat="45.622830390930176" lon="8.220863342285156">
        <ele>465.8961181640625</ele>
        <time>2005-12-11T11:35:06Z</time>
      </trkpt>
      <trkpt lat="45.622744560241699" lon="8.220949172973633">
        <ele>463.0120849609375</ele>
        <time>2005-12-11T11:35:17Z</time>
      </trkpt>
      <trkpt lat="45.622637271881104" lon="8.220992088317871">
        <ele>460.6087646484375</ele>
        <time>2005-12-11T11:35:27Z</time>
      </trkpt>
      <trkpt lat="45.622508525848389" lon="8.22101354598999">
        <ele>458.6861572265625</ele>
        <time>2005-12-11T11:35:37Z</time>
      </trkpt>
      <trkpt lat="45.622444152832031" lon="8.220970630645752">
        <ele>458.6861572265625</ele>
        <time>2005-12-11T11:35:43Z</time>
      </trkpt>
      <trkpt lat="45.622444152832031" lon="8.220970630645752">
        <ele>451.476318359375</ele>
        <time>2005-12-11T11:40:49Z</time>
      </trkpt>
      <trkpt lat="45.622422695159912" lon="8.220927715301514">
        <ele>450.5150146484375</ele>
        <time>2005-12-11T11:40:53Z</time>
      </trkpt>
      <trkpt lat="45.622358322143555" lon="8.220949172973633">
        <ele>451.95703125</ele>
        <time>2005-12-11T11:41:00Z</time>
      </trkpt>
      <trkpt lat="45.622315406799316" lon="8.220992088317871">
        <ele>453.39892578125</ele>
        <time>2005-12-11T11:41:08Z</time>
      </trkpt>
      <trkpt lat="45.622315406799316" lon="8.22101354598999">
        <ele>452.918212890625</ele>
        <time>2005-12-11T11:41:17Z</time>
      </trkpt>
      <trkpt lat="45.62222957611084" lon="8.221056461334229">
        <ele>451.476318359375</ele>
        <time>2005-12-11T11:41:21Z</time>
      </trkpt>
      <trkpt lat="45.622079372406006" lon="8.221077919006348">
        <ele>450.99560546875</ele>
        <time>2005-12-11T11:41:26Z</time>
      </trkpt>
      <trkpt lat="45.622014999389648" lon="8.221120834350586">
        <ele>450.5150146484375</ele>
        <time>2005-12-11T11:41:29Z</time>
      </trkpt>
      <trkpt lat="45.621886253356934" lon="8.221099376678467">
        <ele>448.5924072265625</ele>
        <time>2005-12-11T11:41:35Z</time>
      </trkpt>
      <trkpt lat="45.621886253356934" lon="8.221099376678467">
        <ele>448.11181640625</ele>
        <time>2005-12-11T11:41:41Z</time>
      </trkpt>
      <trkpt lat="45.621800422668457" lon="8.221056461334229">
        <ele>447.1502685546875</ele>
        <time>2005-12-11T11:41:59Z</time>
      </trkpt>
      <trkpt lat="45.621778964996338" lon="8.221035003662109">
        <ele>447.1502685546875</ele>
        <time>2005-12-11T11:42:00Z</time>
      </trkpt>
      <trkpt lat="45.6217360496521" lon="8.220970630645752">
        <ele>446.1890869140625</ele>
        <time>2005-12-11T11:42:03Z</time>
      </trkpt>
      <trkpt lat="45.621693134307861" lon="8.220949172973633">
        <ele>445.2276611328125</ele>
        <time>2005-12-11T11:42:08Z</time>
      </trkpt>
      <trkpt lat="45.621650218963623" lon="8.220906257629395">
        <ele>443.7857666015625</ele>
        <time>2005-12-11T11:42:15Z</time>
      </trkpt>
      <trkpt lat="45.621521472930908" lon="8.220906257629395">
        <ele>441.3824462890625</ele>
        <time>2005-12-11T11:42:24Z</time>
      </trkpt>
      <trkpt lat="45.621435642242432" lon="8.220906257629395">
        <ele>440.4212646484375</ele>
        <time>2005-12-11T11:42:30Z</time>
      </trkpt>
      <trkpt lat="45.621435642242432" lon="8.220906257629395">
        <ele>440.90185546875</ele>
        <time>2005-12-11T11:42:39Z</time>
      </trkpt>
      <trkpt lat="45.621392726898193" lon="8.220884799957275">
        <ele>439.459716796875</ele>
        <time>2005-12-11T11:42:46Z</time>
      </trkpt>
      <trkpt lat="45.621328353881836" lon="8.220863342285156">
        <ele>438.017822265625</ele>
        <time>2005-12-11T11:42:53Z</time>
      </trkpt>
      <trkpt lat="45.62122106552124" lon="8.220841884613037">
        <ele>436.575927734375</ele>
        <time>2005-12-11T11:43:00Z</time>
      </trkpt>
      <trkpt lat="45.621027946472168" lon="8.220841884613037">
        <ele>435.614501953125</ele>
        <time>2005-12-11T11:43:06Z</time>
      </trkpt>
      <trkpt lat="45.620963573455811" lon="8.220798969268799">
        <ele>434.6533203125</ele>
        <time>2005-12-11T11:43:09Z</time>
      </trkpt>
      <trkpt lat="45.620791912078857" lon="8.220756053924561">
        <ele>430.3272705078125</ele>
        <time>2005-12-11T11:43:14Z</time>
      </trkpt>
      <trkpt lat="45.620684623718262" lon="8.220756053924561">
        <ele>429.365966796875</ele>
        <time>2005-12-11T11:43:17Z</time>
      </trkpt>
      <trkpt lat="45.620555877685547" lon="8.220756053924561">
        <ele>428.8853759765625</ele>
        <time>2005-12-11T11:43:21Z</time>
      </trkpt>
      <trkpt lat="45.62047004699707" lon="8.220713138580322">
        <ele>428.8853759765625</ele>
        <time>2005-12-11T11:43:25Z</time>
      </trkpt>
      <trkpt lat="45.620298385620117" lon="8.220756053924561">
        <ele>426.9627685546875</ele>
        <time>2005-12-11T11:43:32Z</time>
      </trkpt>
      <trkpt lat="45.620169639587402" lon="8.220841884613037">
        <ele>423.5980224609375</ele>
        <time>2005-12-11T11:43:37Z</time>
      </trkpt>
      <trkpt lat="45.620019435882568" lon="8.220798969268799">
        <ele>421.19482421875</ele>
        <time>2005-12-11T11:43:43Z</time>
      </trkpt>
      <trkpt lat="45.619869232177734" lon="8.220691680908203">
        <ele>417.8302001953125</ele>
        <time>2005-12-11T11:43:49Z</time>
      </trkpt>
      <trkpt lat="45.619804859161377" lon="8.220734596252441">
        <ele>417.349609375</ele>
        <time>2005-12-11T11:43:51Z</time>
      </trkpt>
      <trkpt lat="45.619761943817139" lon="8.22077751159668">
        <ele>416.868896484375</ele>
        <time>2005-12-11T11:43:53Z</time>
      </trkpt>
      <trkpt lat="45.619654655456543" lon="8.220884799957275">
        <ele>416.868896484375</ele>
        <time>2005-12-11T11:43:57Z</time>
      </trkpt>
      <trkpt lat="45.619633197784424" lon="8.220906257629395">
        <ele>416.38818359375</ele>
        <time>2005-12-11T11:43:58Z</time>
      </trkpt>
      <trkpt lat="45.61948299407959" lon="8.220906257629395">
        <ele>413.98486328125</ele>
        <time>2005-12-11T11:44:04Z</time>
      </trkpt>
      <trkpt lat="45.619461536407471" lon="8.220906257629395">
        <ele>413.0235595703125</ele>
        <time>2005-12-11T11:44:09Z</time>
      </trkpt>
      <trkpt lat="45.619440078735352" lon="8.220906257629395">
        <ele>413.0235595703125</ele>
        <time>2005-12-11T11:44:11Z</time>
      </trkpt>
      <trkpt lat="45.619375705718994" lon="8.220798969268799">
        <ele>411.1009521484375</ele>
        <time>2005-12-11T11:44:15Z</time>
      </trkpt>
      <trkpt lat="45.619246959686279" lon="8.220584392547607">
        <ele>407.255615234375</ele>
        <time>2005-12-11T11:44:21Z</time>
      </trkpt>
      <trkpt lat="45.618946552276611" lon="8.220541477203369">
        <ele>405.813720703125</ele>
        <time>2005-12-11T11:44:27Z</time>
      </trkpt>
      <trkpt lat="45.618753433227539" lon="8.220562934875488">
        <ele>403.89111328125</ele>
        <time>2005-12-11T11:44:31Z</time>
      </trkpt>
      <trkpt lat="45.618624687194824" lon="8.220348358154297">
        <ele>401.968505859375</ele>
        <time>2005-12-11T11:44:36Z</time>
      </trkpt>
      <trkpt lat="45.618603229522705" lon="8.220326900482178">
        <ele>401.968505859375</ele>
        <time>2005-12-11T11:44:37Z</time>
      </trkpt>
      <trkpt lat="45.618453025817871" lon="8.220069408416748">
        <ele>400.5264892578125</ele>
        <time>2005-12-11T11:44:44Z</time>
      </trkpt>
      <trkpt lat="45.618453025817871" lon="8.220069408416748">
        <ele>399.0843505859375</ele>
        <time>2005-12-11T11:45:04Z</time>
      </trkpt>
      <trkpt lat="45.618345737457275" lon="8.220005035400391">
        <ele>399.0843505859375</ele>
        <time>2005-12-11T11:45:49Z</time>
      </trkpt>
      <trkpt lat="45.618345737457275" lon="8.220005035400391">
        <ele>400.0458984375</ele>
        <time>2005-12-11T11:45:59Z</time>
      </trkpt>
      <trkpt lat="45.618345737457275" lon="8.220005035400391">
        <ele>399.5650634765625</ele>
        <time>2005-12-11T11:46:01Z</time>
      </trkpt>
      <trkpt lat="45.618259906768799" lon="8.220047950744629">
        <ele>397.6424560546875</ele>
        <time>2005-12-11T11:46:05Z</time>
      </trkpt>
      <trkpt lat="45.618131160736084" lon="8.219962120056152">
        <ele>394.758544921875</ele>
        <time>2005-12-11T11:46:10Z</time>
      </trkpt>
      <trkpt lat="45.618066787719727" lon="8.219919204711914">
        <ele>391.87451171875</ele>
        <time>2005-12-11T11:46:12Z</time>
      </trkpt>
      <trkpt lat="45.617959499359131" lon="8.219919204711914">
        <ele>389.47119140625</ele>
        <time>2005-12-11T11:46:16Z</time>
      </trkpt>
      <trkpt lat="45.617852210998535" lon="8.219854831695557">
        <ele>388.510009765625</ele>
        <time>2005-12-11T11:46:21Z</time>
      </trkpt>
      <trkpt lat="45.617659091949463" lon="8.219897747039795">
        <ele>390.9132080078125</ele>
        <time>2005-12-11T11:46:29Z</time>
      </trkpt>
      <trkpt lat="45.617659091949463" lon="8.219897747039795">
        <ele>391.393798828125</ele>
        <time>2005-12-11T11:46:34Z</time>
      </trkpt>
      <trkpt lat="45.617659091949463" lon="8.219919204711914">
        <ele>391.87451171875</ele>
        <time>2005-12-11T11:46:38Z</time>
      </trkpt>
      <trkpt lat="45.617594718933105" lon="8.219897747039795">
        <ele>390.9132080078125</ele>
        <time>2005-12-11T11:46:44Z</time>
      </trkpt>
      <trkpt lat="45.617551803588867" lon="8.219897747039795">
        <ele>391.87451171875</ele>
        <time>2005-12-11T11:46:51Z</time>
      </trkpt>
      <trkpt lat="45.617508888244629" lon="8.219854831695557">
        <ele>389.47119140625</ele>
        <time>2005-12-11T11:46:59Z</time>
      </trkpt>
      <trkpt lat="45.617508888244629" lon="8.219833374023438">
        <ele>386.106689453125</ele>
        <time>2005-12-11T11:47:07Z</time>
      </trkpt>
      <trkpt lat="45.61748743057251" lon="8.219790458679199">
        <ele>385.1453857421875</ele>
        <time>2005-12-11T11:47:12Z</time>
      </trkpt>
      <trkpt lat="45.617423057556152" lon="8.219597339630127">
        <ele>382.2613525390625</ele>
        <time>2005-12-11T11:47:19Z</time>
      </trkpt>
      <trkpt lat="45.617423057556152" lon="8.219554424285889">
        <ele>381.7806396484375</ele>
        <time>2005-12-11T11:47:20Z</time>
      </trkpt>
      <trkpt lat="45.61722993850708" lon="8.219361305236816">
        <ele>382.2613525390625</ele>
        <time>2005-12-11T11:47:26Z</time>
      </trkpt>
      <trkpt lat="45.617144107818604" lon="8.219189643859863">
        <ele>382.7420654296875</ele>
        <time>2005-12-11T11:47:31Z</time>
      </trkpt>
      <trkpt lat="45.617058277130127" lon="8.219125270843506">
        <ele>381.300048828125</ele>
        <time>2005-12-11T11:47:34Z</time>
      </trkpt>
      <trkpt lat="45.616886615753174" lon="8.219125270843506">
        <ele>383.22265625</ele>
        <time>2005-12-11T11:47:39Z</time>
      </trkpt>
      <trkpt lat="45.616822242736816" lon="8.219103813171387">
        <ele>381.7806396484375</ele>
        <time>2005-12-11T11:47:44Z</time>
      </trkpt>
      <trkpt lat="45.616779327392578" lon="8.21901798248291">
        <ele>380.3387451171875</ele>
        <time>2005-12-11T11:47:49Z</time>
      </trkpt>
      <trkpt lat="45.616607666015625" lon="8.2187819480896">
        <ele>378.8968505859375</ele>
        <time>2005-12-11T11:47:54Z</time>
      </trkpt>
      <trkpt lat="45.616414546966553" lon="8.218653202056885">
        <ele>377.9354248046875</ele>
        <time>2005-12-11T11:47:59Z</time>
      </trkpt>
      <trkpt lat="45.616285800933838" lon="8.218352794647217">
        <ele>375.5321044921875</ele>
        <time>2005-12-11T11:48:05Z</time>
      </trkpt>
      <trkpt lat="45.616264343261719" lon="8.218331336975098">
        <ele>375.051513671875</ele>
        <time>2005-12-11T11:48:06Z</time>
      </trkpt>
      <trkpt lat="45.616114139556885" lon="8.218309879302979">
        <ele>369.7642822265625</ele>
        <time>2005-12-11T11:48:11Z</time>
      </trkpt>
      <trkpt lat="45.615899562835693" lon="8.218309879302979">
        <ele>368.802978515625</ele>
        <time>2005-12-11T11:48:17Z</time>
      </trkpt>
      <trkpt lat="45.61572790145874" lon="8.218352794647217">
        <ele>364.9576416015625</ele>
        <time>2005-12-11T11:48:23Z</time>
      </trkpt>
      <trkpt lat="45.615642070770264" lon="8.218374252319336">
        <ele>363.996337890625</ele>
        <time>2005-12-11T11:48:26Z</time>
      </trkpt>
      <trkpt lat="45.615427494049072" lon="8.218460083007813">
        <ele>363.996337890625</ele>
        <time>2005-12-11T11:48:33Z</time>
      </trkpt>
      <trkpt lat="45.615234375" lon="8.218502998352051">
        <ele>361.1124267578125</ele>
        <time>2005-12-11T11:48:38Z</time>
      </trkpt>
      <trkpt lat="45.615062713623047" lon="8.218481540679932">
        <ele>358.2283935546875</ele>
        <time>2005-12-11T11:48:44Z</time>
      </trkpt>
      <trkpt lat="45.614869594573975" lon="8.218460083007813">
        <ele>358.2283935546875</ele>
        <time>2005-12-11T11:48:49Z</time>
      </trkpt>
      <trkpt lat="45.614783763885498" lon="8.218438625335693">
        <ele>358.2283935546875</ele>
        <time>2005-12-11T11:48:52Z</time>
      </trkpt>
      <trkpt lat="45.614633560180664" lon="8.218481540679932">
        <ele>357.747802734375</ele>
        <time>2005-12-11T11:48:57Z</time>
      </trkpt>
      <trkpt lat="45.614461898803711" lon="8.218545913696289">
        <ele>358.708984375</ele>
        <time>2005-12-11T11:49:02Z</time>
      </trkpt>
      <trkpt lat="45.614440441131592" lon="8.218545913696289">
        <ele>359.189697265625</ele>
        <time>2005-12-11T11:49:08Z</time>
      </trkpt>
      <trkpt lat="45.614376068115234" lon="8.21852445602417">
        <ele>357.26708984375</ele>
        <time>2005-12-11T11:49:34Z</time>
      </trkpt>
      <trkpt lat="45.614290237426758" lon="8.218481540679932">
        <ele>356.786376953125</ele>
        <time>2005-12-11T11:49:39Z</time>
      </trkpt>
      <trkpt lat="45.614204406738281" lon="8.218610286712647">
        <ele>352.941162109375</ele>
        <time>2005-12-11T11:49:44Z</time>
      </trkpt>
      <trkpt lat="45.614118576049805" lon="8.218567371368408">
        <ele>351.4991455078125</ele>
        <time>2005-12-11T11:49:48Z</time>
      </trkpt>
      <trkpt lat="45.61398983001709" lon="8.218610286712647">
        <ele>347.1732177734375</ele>
        <time>2005-12-11T11:49:54Z</time>
      </trkpt>
      <trkpt lat="45.613968372344971" lon="8.218610286712647">
        <ele>346.2120361328125</ele>
        <time>2005-12-11T11:49:56Z</time>
      </trkpt>
      <trkpt lat="45.613818168640137" lon="8.218545913696289">
        <ele>343.80859375</ele>
        <time>2005-12-11T11:50:01Z</time>
      </trkpt>
      <trkpt lat="45.613560676574707" lon="8.218502998352051">
        <ele>342.36669921875</ele>
        <time>2005-12-11T11:50:08Z</time>
      </trkpt>
      <trkpt lat="45.61347484588623" lon="8.218352794647217">
        <ele>340.9246826171875</ele>
        <time>2005-12-11T11:50:14Z</time>
      </trkpt>
      <trkpt lat="45.613431930541992" lon="8.218202590942383">
        <ele>340.9246826171875</ele>
        <time>2005-12-11T11:50:17Z</time>
      </trkpt>
      <trkpt lat="45.613217353820801" lon="8.217816352844238">
        <ele>339.96337890625</ele>
        <time>2005-12-11T11:50:24Z</time>
      </trkpt>
      <trkpt lat="45.61298131942749" lon="8.217451572418213">
        <ele>339.0020751953125</ele>
        <time>2005-12-11T11:50:33Z</time>
      </trkpt>
      <trkpt lat="45.612809658050537" lon="8.217236995697022">
        <ele>336.598876953125</ele>
        <time>2005-12-11T11:50:41Z</time>
      </trkpt>
      <trkpt lat="45.612616539001465" lon="8.21727991104126">
        <ele>335.6373291015625</ele>
        <time>2005-12-11T11:50:49Z</time>
      </trkpt>
      <trkpt lat="45.612466335296631" lon="8.217408657073975">
        <ele>335.6373291015625</ele>
        <time>2005-12-11T11:50:57Z</time>
      </trkpt>
      <trkpt lat="45.612380504608154" lon="8.217623233795166">
        <ele>334.6761474609375</ele>
        <time>2005-12-11T11:51:06Z</time>
      </trkpt>
      <trkpt lat="45.612316131591797" lon="8.217859268188477">
        <ele>333.7147216796875</ele>
        <time>2005-12-11T11:51:16Z</time>
      </trkpt>
      <trkpt lat="45.61223030090332" lon="8.218181133270264">
        <ele>332.2728271484375</ele>
        <time>2005-12-11T11:51:29Z</time>
      </trkpt>
      <trkpt lat="45.612187385559082" lon="8.218374252319336">
        <ele>330.3502197265625</ele>
        <time>2005-12-11T11:51:35Z</time>
      </trkpt>
      <trkpt lat="45.612165927886963" lon="8.218417167663574">
        <ele>328.9083251953125</ele>
        <time>2005-12-11T11:51:41Z</time>
      </trkpt>
      <trkpt lat="45.612123012542725" lon="8.218417167663574">
        <ele>329.388916015625</ele>
        <time>2005-12-11T11:51:48Z</time>
      </trkpt>
      <trkpt lat="45.612080097198486" lon="8.218438625335693">
        <ele>327.4661865234375</ele>
        <time>2005-12-11T11:51:59Z</time>
      </trkpt>
      <trkpt lat="45.612058639526367" lon="8.218460083007813">
        <ele>327.94677734375</ele>
        <time>2005-12-11T11:52:17Z</time>
      </trkpt>
      <trkpt lat="45.612015724182129" lon="8.218803405761719">
        <ele>326.5048828125</ele>
        <time>2005-12-11T11:52:30Z</time>
      </trkpt>
      <trkpt lat="45.611908435821533" lon="8.21927547454834">
        <ele>324.1015625</ele>
        <time>2005-12-11T11:52:46Z</time>
      </trkpt>
      <trkpt lat="45.611844062805176" lon="8.219683170318604">
        <ele>321.6983642578125</ele>
        <time>2005-12-11T11:52:57Z</time>
      </trkpt>
      <trkpt lat="45.611779689788818" lon="8.220047950744629">
        <ele>318.3336181640625</ele>
        <time>2005-12-11T11:53:06Z</time>
      </trkpt>
      <trkpt lat="45.611629486083984" lon="8.220369815826416">
        <ele>314.9691162109375</ele>
        <time>2005-12-11T11:53:14Z</time>
      </trkpt>
      <trkpt lat="45.611629486083984" lon="8.220605850219727">
        <ele>313.0465087890625</ele>
        <time>2005-12-11T11:53:20Z</time>
      </trkpt>
      <trkpt lat="45.61147928237915" lon="8.220970630645752">
        <ele>309.681884765625</ele>
        <time>2005-12-11T11:53:29Z</time>
      </trkpt>
      <trkpt lat="45.611264705657959" lon="8.221507072448731">
        <ele>306.7978515625</ele>
        <time>2005-12-11T11:53:40Z</time>
      </trkpt>
      <trkpt lat="45.611071586608887" lon="8.222150802612305">
        <ele>305.35595703125</ele>
        <time>2005-12-11T11:53:53Z</time>
      </trkpt>
      <trkpt lat="45.611028671264648" lon="8.222494125366211">
        <ele>301.5106201171875</ele>
        <time>2005-12-11T11:54:00Z</time>
      </trkpt>
      <trkpt lat="45.61098575592041" lon="8.222751617431641">
        <ele>300.54931640625</ele>
        <time>2005-12-11T11:54:04Z</time>
      </trkpt>
      <trkpt lat="45.61098575592041" lon="8.223309516906738">
        <ele>296.7041015625</ele>
        <time>2005-12-11T11:54:12Z</time>
      </trkpt>
      <trkpt lat="45.611028671264648" lon="8.223717212677002">
        <ele>295.261962890625</ele>
        <time>2005-12-11T11:54:20Z</time>
      </trkpt>
      <trkpt lat="45.611071586608887" lon="8.224060535430908">
        <ele>294.30078125</ele>
        <time>2005-12-11T11:54:29Z</time>
      </trkpt>
      <trkpt lat="45.611093044281006" lon="8.224360942840576">
        <ele>293.33935546875</ele>
        <time>2005-12-11T11:54:37Z</time>
      </trkpt>
      <trkpt lat="45.611157417297363" lon="8.224747180938721">
        <ele>292.8587646484375</ele>
        <time>2005-12-11T11:54:48Z</time>
      </trkpt>
      <trkpt lat="45.611221790313721" lon="8.225111961364746">
        <ele>292.378173828125</ele>
        <time>2005-12-11T11:55:00Z</time>
      </trkpt>
      <trkpt lat="45.611307621002197" lon="8.225369453430176">
        <ele>292.378173828125</ele>
        <time>2005-12-11T11:55:10Z</time>
      </trkpt>
      <trkpt lat="45.61124324798584" lon="8.225369453430176">
        <ele>292.8587646484375</ele>
        <time>2005-12-11T11:55:16Z</time>
      </trkpt>
      <trkpt lat="45.61124324798584" lon="8.225347995758057">
        <ele>292.8587646484375</ele>
        <time>2005-12-11T11:55:34Z</time>
      </trkpt>
      <trkpt lat="45.611200332641602" lon="8.225347995758057">
        <ele>293.33935546875</ele>
        <time>2005-12-11T11:55:36Z</time>
      </trkpt>
      <trkpt lat="45.611200332641602" lon="8.225347995758057">
        <ele>294.7813720703125</ele>
        <time>2005-12-11T11:55:44Z</time>
      </trkpt>
      <trkpt lat="45.611200332641602" lon="8.225347995758057">
        <ele>300.54931640625</ele>
        <time>2005-12-11T11:57:25Z</time>
      </trkpt>
      <trkpt lat="45.611200332641602" lon="8.225390911102295">
        <ele>300.54931640625</ele>
        <time>2005-12-11T11:58:11Z</time>
      </trkpt>
      <trkpt lat="45.611178874969482" lon="8.225433826446533">
        <ele>300.0687255859375</ele>
        <time>2005-12-11T11:58:14Z</time>
      </trkpt>
      <trkpt lat="45.611157417297363" lon="8.22551965713501">
        <ele>300.0687255859375</ele>
        <time>2005-12-11T11:58:19Z</time>
      </trkpt>
      <trkpt lat="45.611007213592529" lon="8.22575569152832">
        <ele>301.5106201171875</ele>
        <time>2005-12-11T11:58:28Z</time>
      </trkpt>
      <trkpt lat="45.610771179199219" lon="8.226120471954346">
        <ele>301.0299072265625</ele>
        <time>2005-12-11T11:58:41Z</time>
      </trkpt>
      <trkpt lat="45.610599517822266" lon="8.226549625396729">
        <ele>300.0687255859375</ele>
        <time>2005-12-11T11:58:54Z</time>
      </trkpt>
      <trkpt lat="45.610556602478027" lon="8.226656913757324">
        <ele>299.5880126953125</ele>
        <time>2005-12-11T11:58:56Z</time>
      </trkpt>
      <trkpt lat="45.61023473739624" lon="8.226935863494873">
        <ele>300.0687255859375</ele>
        <time>2005-12-11T11:59:03Z</time>
      </trkpt>
      <trkpt lat="45.609805583953857" lon="8.227171897888184">
        <ele>299.1072998046875</ele>
        <time>2005-12-11T11:59:09Z</time>
      </trkpt>
      <trkpt lat="45.609269142150879" lon="8.227493762969971">
        <ele>298.1461181640625</ele>
        <time>2005-12-11T11:59:16Z</time>
      </trkpt>
      <trkpt lat="45.609140396118164" lon="8.227622509002686">
        <ele>297.6654052734375</ele>
        <time>2005-12-11T11:59:18Z</time>
      </trkpt>
      <trkpt lat="45.609011650085449" lon="8.227880001068115">
        <ele>297.6654052734375</ele>
        <time>2005-12-11T11:59:21Z</time>
      </trkpt>
      <trkpt lat="45.608625411987305" lon="8.22852373123169">
        <ele>295.74267578125</ele>
        <time>2005-12-11T11:59:28Z</time>
      </trkpt>
      <trkpt lat="45.60849666595459" lon="8.229060173034668">
        <ele>293.820068359375</ele>
        <time>2005-12-11T11:59:33Z</time>
      </trkpt>
      <trkpt lat="45.608518123626709" lon="8.229231834411621">
        <ele>293.820068359375</ele>
        <time>2005-12-11T11:59:35Z</time>
      </trkpt>
      <trkpt lat="45.608646869659424" lon="8.229618072509766">
        <ele>292.8587646484375</ele>
        <time>2005-12-11T11:59:42Z</time>
      </trkpt>
      <trkpt lat="45.608818531036377" lon="8.230047225952148">
        <ele>292.378173828125</ele>
        <time>2005-12-11T11:59:52Z</time>
      </trkpt>
      <trkpt lat="45.60899019241333" lon="8.230476379394531">
        <ele>291.416748046875</ele>
        <time>2005-12-11T12:00:03Z</time>
      </trkpt>
      <trkpt lat="45.609204769134521" lon="8.230862617492676">
        <ele>292.378173828125</ele>
        <time>2005-12-11T12:00:15Z</time>
      </trkpt>
      <trkpt lat="45.609397888183594" lon="8.231184482574463">
        <ele>295.74267578125</ele>
        <time>2005-12-11T12:00:26Z</time>
      </trkpt>
      <trkpt lat="45.609591007232666" lon="8.231527805328369">
        <ele>298.1461181640625</ele>
        <time>2005-12-11T12:00:37Z</time>
      </trkpt>
      <trkpt lat="45.609805583953857" lon="8.231914043426514">
        <ele>298.626708984375</ele>
        <time>2005-12-11T12:00:50Z</time>
      </trkpt>
      <trkpt lat="45.609955787658691" lon="8.232321739196777">
        <ele>298.626708984375</ele>
        <time>2005-12-11T12:01:02Z</time>
      </trkpt>
      <trkpt lat="45.609955787658691" lon="8.232729434967041">
        <ele>301.5106201171875</ele>
        <time>2005-12-11T12:01:13Z</time>
      </trkpt>
      <trkpt lat="45.609934329986572" lon="8.232922554016113">
        <ele>302.471923828125</ele>
        <time>2005-12-11T12:01:21Z</time>
      </trkpt>
      <trkpt lat="45.609912872314453" lon="8.233094215393066">
        <ele>303.4332275390625</ele>
        <time>2005-12-11T12:01:29Z</time>
      </trkpt>
      <trkpt lat="45.609827041625977" lon="8.233115673065186">
        <ele>304.875244140625</ele>
        <time>2005-12-11T12:01:35Z</time>
      </trkpt>
      <trkpt lat="45.6097412109375" lon="8.233029842376709">
        <ele>306.3172607421875</ele>
        <time>2005-12-11T12:01:42Z</time>
      </trkpt>
      <trkpt lat="45.609569549560547" lon="8.232858180999756">
        <ele>304.875244140625</ele>
        <time>2005-12-11T12:01:50Z</time>
      </trkpt>
      <trkpt lat="45.609312057495117" lon="8.232536315917969">
        <ele>303.4332275390625</ele>
        <time>2005-12-11T12:01:57Z</time>
      </trkpt>
      <trkpt lat="45.609183311462402" lon="8.232364654541016">
        <ele>302.9525146484375</ele>
        <time>2005-12-11T12:02:00Z</time>
      </trkpt>
      <trkpt lat="45.60899019241333" lon="8.231785297393799">
        <ele>301.5106201171875</ele>
        <time>2005-12-11T12:02:09Z</time>
      </trkpt>
      <trkpt lat="45.608625411987305" lon="8.23127031326294">
        <ele>300.0687255859375</ele>
        <time>2005-12-11T12:02:20Z</time>
      </trkpt>
      <trkpt lat="45.608153343200684" lon="8.230626583099365">
        <ele>299.5880126953125</ele>
        <time>2005-12-11T12:02:38Z</time>
      </trkpt>
      <trkpt lat="45.608131885528564" lon="8.230583667755127">
        <ele>299.5880126953125</ele>
        <time>2005-12-11T12:02:39Z</time>
      </trkpt>
      <trkpt lat="45.607960224151611" lon="8.23049783706665">
        <ele>299.5880126953125</ele>
        <time>2005-12-11T12:02:42Z</time>
      </trkpt>
      <trkpt lat="45.607466697692871" lon="8.230476379394531">
        <ele>298.626708984375</ele>
        <time>2005-12-11T12:02:47Z</time>
      </trkpt>
      <trkpt lat="45.607337951660156" lon="8.230454921722412">
        <ele>298.626708984375</ele>
        <time>2005-12-11T12:02:48Z</time>
      </trkpt>
      <trkpt lat="45.606758594512939" lon="8.230197429656982">
        <ele>290.9361572265625</ele>
        <time>2005-12-11T12:02:53Z</time>
      </trkpt>
      <trkpt lat="45.606029033660889" lon="8.2297682762146">
        <ele>285.6488037109375</ele>
        <time>2005-12-11T12:02:59Z</time>
      </trkpt>
      <trkpt lat="45.605213642120361" lon="8.229789733886719">
        <ele>280.3616943359375</ele>
        <time>2005-12-11T12:03:05Z</time>
      </trkpt>
      <trkpt lat="45.604956150054932" lon="8.229832649230957">
        <ele>279.880859375</ele>
        <time>2005-12-11T12:03:07Z</time>
      </trkpt>
      <trkpt lat="45.604569911956787" lon="8.229575157165527">
        <ele>280.3616943359375</ele>
        <time>2005-12-11T12:03:11Z</time>
      </trkpt>
      <trkpt lat="45.604290962219238" lon="8.229146003723145">
        <ele>277.4776611328125</ele>
        <time>2005-12-11T12:03:16Z</time>
      </trkpt>
      <trkpt lat="45.604054927825928" lon="8.228738307952881">
        <ele>274.59375</ele>
        <time>2005-12-11T12:03:22Z</time>
      </trkpt>
      <trkpt lat="45.603947639465332" lon="8.228609561920166">
        <ele>274.113037109375</ele>
        <time>2005-12-11T12:03:25Z</time>
      </trkpt>
      <trkpt lat="45.603775978088379" lon="8.22850227355957">
        <ele>272.671142578125</ele>
        <time>2005-12-11T12:03:29Z</time>
      </trkpt>
      <trkpt lat="45.603346824645996" lon="8.228437900543213">
        <ele>270.2677001953125</ele>
        <time>2005-12-11T12:03:37Z</time>
      </trkpt>
      <trkpt lat="45.603282451629639" lon="8.228416442871094">
        <ele>269.787109375</ele>
        <time>2005-12-11T12:03:38Z</time>
      </trkpt>
      <trkpt lat="45.603153705596924" lon="8.22826623916626">
        <ele>268.8258056640625</ele>
        <time>2005-12-11T12:03:41Z</time>
      </trkpt>
      <trkpt lat="45.602939128875732" lon="8.228094577789307">
        <ele>268.8258056640625</ele>
        <time>2005-12-11T12:03:45Z</time>
      </trkpt>
      <trkpt lat="45.602316856384277" lon="8.228180408477783">
        <ele>267.3839111328125</ele>
        <time>2005-12-11T12:03:56Z</time>
      </trkpt>
      <trkpt lat="45.602188110351562" lon="8.228223323822022">
        <ele>266.9031982421875</ele>
        <time>2005-12-11T12:03:58Z</time>
      </trkpt>
      <trkpt lat="45.601823329925537" lon="8.228459358215332">
        <ele>265.4613037109375</ele>
        <time>2005-12-11T12:04:05Z</time>
      </trkpt>
      <trkpt lat="45.60124397277832" lon="8.228588104248047">
        <ele>263.53857421875</ele>
        <time>2005-12-11T12:04:15Z</time>
      </trkpt>
      <trkpt lat="45.60075044631958" lon="8.228566646575928">
        <ele>262.5771484375</ele>
        <time>2005-12-11T12:04:24Z</time>
      </trkpt>
      <trkpt lat="45.60049295425415" lon="8.228116035461426">
        <ele>262.0965576171875</ele>
        <time>2005-12-11T12:04:32Z</time>
      </trkpt>
      <trkpt lat="45.600428581237793" lon="8.22800874710083">
        <ele>262.0965576171875</ele>
        <time>2005-12-11T12:04:34Z</time>
      </trkpt>
      <trkpt lat="45.600171089172363" lon="8.227815628051758">
        <ele>261.615966796875</ele>
        <time>2005-12-11T12:04:39Z</time>
      </trkpt>
      <trkpt lat="45.599935054779053" lon="8.227665424346924">
        <ele>260.654541015625</ele>
        <time>2005-12-11T12:04:43Z</time>
      </trkpt>
      <trkpt lat="45.599849224090576" lon="8.227386474609375">
        <ele>261.13525390625</ele>
        <time>2005-12-11T12:04:47Z</time>
      </trkpt>
      <trkpt lat="45.599806308746338" lon="8.227107524871826">
        <ele>260.1739501953125</ele>
        <time>2005-12-11T12:04:51Z</time>
      </trkpt>
      <trkpt lat="45.599591732025146" lon="8.226914405822754">
        <ele>260.654541015625</ele>
        <time>2005-12-11T12:04:56Z</time>
      </trkpt>
      <trkpt lat="45.599548816680908" lon="8.226892948150635">
        <ele>260.1739501953125</ele>
        <time>2005-12-11T12:04:57Z</time>
      </trkpt>
      <trkpt lat="45.599226951599121" lon="8.226807117462158">
        <ele>259.212646484375</ele>
        <time>2005-12-11T12:05:02Z</time>
      </trkpt>
      <trkpt lat="45.598776340484619" lon="8.226957321166992">
        <ele>258.73193359375</ele>
        <time>2005-12-11T12:05:09Z</time>
      </trkpt>
      <trkpt lat="45.59826135635376" lon="8.227300643920898">
        <ele>258.2513427734375</ele>
        <time>2005-12-11T12:05:18Z</time>
      </trkpt>
      <trkpt lat="45.597681999206543" lon="8.227665424346924">
        <ele>256.3287353515625</ele>
        <time>2005-12-11T12:05:27Z</time>
      </trkpt>
      <trkpt lat="45.597059726715088" lon="8.228051662445068">
        <ele>253.9254150390625</ele>
        <time>2005-12-11T12:05:38Z</time>
      </trkpt>
      <trkpt lat="45.596673488616943" lon="8.228352069854736">
        <ele>250.560791015625</ele>
        <time>2005-12-11T12:05:47Z</time>
      </trkpt>
      <trkpt lat="45.596330165863037" lon="8.228716850280762">
        <ele>250.560791015625</ele>
        <time>2005-12-11T12:05:55Z</time>
      </trkpt>
      <trkpt lat="45.595901012420654" lon="8.229532241821289">
        <ele>254.8865966796875</ele>
        <time>2005-12-11T12:06:10Z</time>
      </trkpt>
      <trkpt lat="45.595686435699463" lon="8.229897022247315">
        <ele>255.3673095703125</ele>
        <time>2005-12-11T12:06:17Z</time>
      </trkpt>
      <trkpt lat="45.595600605010986" lon="8.23026180267334">
        <ele>255.8480224609375</ele>
        <time>2005-12-11T12:06:23Z</time>
      </trkpt>
      <trkpt lat="45.595557689666748" lon="8.230347633361816">
        <ele>255.3673095703125</ele>
        <time>2005-12-11T12:06:25Z</time>
      </trkpt>
      <trkpt lat="45.595364570617676" lon="8.230433464050293">
        <ele>254.8865966796875</ele>
        <time>2005-12-11T12:06:30Z</time>
      </trkpt>
      <trkpt lat="45.59525728225708" lon="8.230412006378174">
        <ele>254.8865966796875</ele>
        <time>2005-12-11T12:06:32Z</time>
      </trkpt>
      <trkpt lat="45.59502124786377" lon="8.230433464050293">
        <ele>254.406005859375</ele>
        <time>2005-12-11T12:06:36Z</time>
      </trkpt>
      <trkpt lat="45.594527721405029" lon="8.230712413787842">
        <ele>252.9639892578125</ele>
        <time>2005-12-11T12:06:44Z</time>
      </trkpt>
      <trkpt lat="45.594077110290527" lon="8.231227397918701">
        <ele>253.4447021484375</ele>
        <time>2005-12-11T12:06:53Z</time>
      </trkpt>
      <trkpt lat="45.594592094421387" lon="8.231806755065918">
        <ele>254.406005859375</ele>
        <time>2005-12-11T12:06:59Z</time>
      </trkpt>
      <trkpt lat="45.594720840454102" lon="8.231785297393799">
        <ele>254.406005859375</ele>
        <time>2005-12-11T12:07:02Z</time>
      </trkpt>
      <trkpt lat="45.594935417175293" lon="8.23176383972168">
        <ele>254.8865966796875</ele>
        <time>2005-12-11T12:07:07Z</time>
      </trkpt>
      <trkpt lat="45.595085620880127" lon="8.231914043426514">
        <ele>254.8865966796875</ele>
        <time>2005-12-11T12:07:11Z</time>
      </trkpt>
      <trkpt lat="45.595128536224365" lon="8.232235908508301">
        <ele>254.8865966796875</ele>
        <time>2005-12-11T12:07:16Z</time>
      </trkpt>
      <trkpt lat="45.594935417175293" lon="8.233308792114258">
        <ele>253.4447021484375</ele>
        <time>2005-12-11T12:07:33Z</time>
      </trkpt>
      <trkpt lat="45.59476375579834" lon="8.234188556671143">
        <ele>254.406005859375</ele>
        <time>2005-12-11T12:07:47Z</time>
      </trkpt>
      <trkpt lat="45.594635009765625" lon="8.235025405883789">
        <ele>255.3673095703125</ele>
        <time>2005-12-11T12:08:00Z</time>
      </trkpt>
      <trkpt lat="45.594484806060791" lon="8.235840797424316">
        <ele>258.2513427734375</ele>
        <time>2005-12-11T12:08:13Z</time>
      </trkpt>
      <trkpt lat="45.594398975372314" lon="8.236098289489746">
        <ele>259.693359375</ele>
        <time>2005-12-11T12:08:17Z</time>
      </trkpt>
      <trkpt lat="45.594205856323242" lon="8.236463069915772">
        <ele>262.5771484375</ele>
        <time>2005-12-11T12:08:26Z</time>
      </trkpt>
      <trkpt lat="45.594077110290527" lon="8.236699104309082">
        <ele>264.019287109375</ele>
        <time>2005-12-11T12:08:35Z</time>
      </trkpt>
      <trkpt lat="45.593948364257813" lon="8.23699951171875">
        <ele>265.94189453125</ele>
        <time>2005-12-11T12:08:44Z</time>
      </trkpt>
      <trkpt lat="45.593841075897217" lon="8.237428665161133">
        <ele>268.8258056640625</ele>
        <time>2005-12-11T12:08:57Z</time>
      </trkpt>
      <trkpt lat="45.593862533569336" lon="8.237707614898682">
        <ele>270.7484130859375</ele>
        <time>2005-12-11T12:09:05Z</time>
      </trkpt>
      <trkpt lat="45.593969821929932" lon="8.238029479980469">
        <ele>271.709716796875</ele>
        <time>2005-12-11T12:09:16Z</time>
      </trkpt>
      <trkpt lat="45.594034194946289" lon="8.238179683685303">
        <ele>272.671142578125</ele>
        <time>2005-12-11T12:09:22Z</time>
      </trkpt>
      <trkpt lat="45.594120025634766" lon="8.238458633422852">
        <ele>273.15185546875</ele>
        <time>2005-12-11T12:09:32Z</time>
      </trkpt>
      <trkpt lat="45.59424877166748" lon="8.238909244537354">
        <ele>272.1904296875</ele>
        <time>2005-12-11T12:09:48Z</time>
      </trkpt>
      <trkpt lat="45.594334602355957" lon="8.239338397979736">
        <ele>272.1904296875</ele>
        <time>2005-12-11T12:10:01Z</time>
      </trkpt>
      <trkpt lat="45.594291687011719" lon="8.239789009094238">
        <ele>273.6324462890625</ele>
        <time>2005-12-11T12:10:14Z</time>
      </trkpt>
      <trkpt lat="45.594205856323242" lon="8.240325450897217">
        <ele>277.958251953125</ele>
        <time>2005-12-11T12:10:30Z</time>
      </trkpt>
      <trkpt lat="45.594162940979004" lon="8.240947723388672">
        <ele>279.880859375</ele>
        <time>2005-12-11T12:10:48Z</time>
      </trkpt>
      <trkpt lat="45.594162940979004" lon="8.241419792175293">
        <ele>280.8424072265625</ele>
        <time>2005-12-11T12:11:00Z</time>
      </trkpt>
      <trkpt lat="45.59424877166748" lon="8.241698741912842">
        <ele>280.3616943359375</ele>
        <time>2005-12-11T12:11:05Z</time>
      </trkpt>
      <trkpt lat="45.594463348388672" lon="8.24225664138794">
        <ele>277.958251953125</ele>
        <time>2005-12-11T12:11:12Z</time>
      </trkpt>
      <trkpt lat="45.594484806060791" lon="8.242342472076416">
        <ele>277.4776611328125</ele>
        <time>2005-12-11T12:11:13Z</time>
      </trkpt>
      <trkpt lat="45.594635009765625" lon="8.243265151977539">
        <ele>275.074462890625</ele>
        <time>2005-12-11T12:11:21Z</time>
      </trkpt>
      <trkpt lat="45.594656467437744" lon="8.243393898010254">
        <ele>275.074462890625</ele>
        <time>2005-12-11T12:11:22Z</time>
      </trkpt>
      <trkpt lat="45.59502124786377" lon="8.244380950927734">
        <ele>273.6324462890625</ele>
        <time>2005-12-11T12:11:31Z</time>
      </trkpt>
      <trkpt lat="45.595235824584961" lon="8.24498176574707">
        <ele>273.6324462890625</ele>
        <time>2005-12-11T12:11:38Z</time>
      </trkpt>
      <trkpt lat="45.595300197601318" lon="8.245368003845215">
        <ele>274.113037109375</ele>
        <time>2005-12-11T12:11:43Z</time>
      </trkpt>
      <trkpt lat="45.595300197601318" lon="8.24549674987793">
        <ele>273.6324462890625</ele>
        <time>2005-12-11T12:11:45Z</time>
      </trkpt>
      <trkpt lat="45.595214366912842" lon="8.245904445648193">
        <ele>274.59375</ele>
        <time>2005-12-11T12:11:53Z</time>
      </trkpt>
      <trkpt lat="45.595128536224365" lon="8.246226310729981">
        <ele>275.5550537109375</ele>
        <time>2005-12-11T12:12:00Z</time>
      </trkpt>
      <trkpt lat="45.595128536224365" lon="8.246376514434815">
        <ele>276.03564453125</ele>
        <time>2005-12-11T12:12:05Z</time>
      </trkpt>
      <trkpt lat="45.595149993896484" lon="8.246505260467529">
        <ele>276.516357421875</ele>
        <time>2005-12-11T12:12:08Z</time>
      </trkpt>
      <trkpt lat="45.595064163208008" lon="8.247020244598389">
        <ele>276.9970703125</ele>
        <time>2005-12-11T12:12:18Z</time>
      </trkpt>
      <trkpt lat="45.594956874847412" lon="8.247621059417725">
        <ele>278.919677734375</ele>
        <time>2005-12-11T12:12:30Z</time>
      </trkpt>
      <trkpt lat="45.594806671142578" lon="8.24774980545044">
        <ele>279.4002685546875</ele>
        <time>2005-12-11T12:12:36Z</time>
      </trkpt>
    </trkseg>
  </trk>

</gpx>
